Wetterdaten: Freitag, 10.10.2014
Datum Zeit Temp. Aussen +5cm Feuchte Auss Luftdruck Regen Sonnenschein Regendauer Solar Windben
10.10.2014 00:00 13,4 C 11,7 C 89 % 1009,7 hPa 0,0 l/m 0 min 0 min 0 W/m 10,5 km/h (2 Bft)
10.10.2014 00:02 13,4 C 11,7 C 89 % 1009,7 hPa 0,0 l/m 0 min 0 min 0 W/m 6,3 km/h (2 Bft)
10.10.2014 00:05 13,4 C 11,7 C 90 % 1009,7 hPa 0,0 l/m 0 min 0 min 0 W/m 12,6 km/h (3 Bft)
10.10.2014 00:06 13,4 C 11,7 C 90 % 1009,7 hPa 0,0 l/m 0 min 0 min 0 W/m 14,6 km/h (3 Bft)
10.10.2014 00:08 13,4 C 11,7 C 90 % 1009,8 hPa 0,0 l/m 0 min 0 min 0 W/m 20,9 km/h (4 Bft)
10.10.2014 00:10 13,3 C 11,7 C 89 % 1009,8 hPa 0,0 l/m 0 min 0 min 0 W/m 10,5 km/h (2 Bft)
10.10.2014 00:12 13,3 C 11,7 C 90 % 1009,8 hPa 0,0 l/m 0 min 0 min 0 W/m 16,7 km/h (3 Bft)
10.10.2014 00:14 13,3 C 11,7 C 90 % 1009,9 hPa 0,0 l/m 0 min 0 min 0 W/m 14,6 km/h (3 Bft)
10.10.2014 00:16 13,3 C 11,1 C 90 % 1009,8 hPa 0,0 l/m 0 min 0 min 0 W/m 10,5 km/h (2 Bft)
10.10.2014 00:18 13,2 C 11,1 C 90 % 1009,7 hPa 0,0 l/m 0 min 0 min 0 W/m 12,6 km/h (3 Bft)
10.10.2014 00:20 13,2 C 11,1 C 90 % 1009,7 hPa 0,0 l/m 0 min 0 min 0 W/m 12,6 km/h (3 Bft)
10.10.2014 00:22 13,2 C 11,7 C 90 % 1009,8 hPa 0,0 l/m 0 min 0 min 0 W/m 18,8 km/h (3 Bft)
10.10.2014 00:24 13,2 C 11,7 C 90 % 1009,7 hPa 0,0 l/m 0 min 0 min 0 W/m 10,5 km/h (2 Bft)
10.10.2014 00:26 13,2 C 11,7 C 90 % 1009,8 hPa 0,0 l/m 0 min 0 min 0 W/m 14,6 km/h (3 Bft)
10.10.2014 00:28 13,2 C 11,7 C 90 % 1009,7 hPa 0,0 l/m 0 min 0 min 0 W/m 14,6 km/h (3 Bft)
10.10.2014 00:30 13,2 C 11,7 C 90 % 1009,7 hPa 0,0 l/m 0 min 0 min 0 W/m 16,7 km/h (3 Bft)
10.10.2014 00:32 13,2 C 11,1 C 90 % 1009,7 hPa 0,0 l/m 0 min 0 min 0 W/m 12,6 km/h (3 Bft)
10.10.2014 00:34 13,2 C 11,1 C 90 % 1009,7 hPa 0,0 l/m 0 min 0 min 0 W/m 12,6 km/h (3 Bft)
10.10.2014 00:36 13,1 C 11,1 C 90 % 1009,7 hPa 0,0 l/m 0 min 0 min 0 W/m 14,6 km/h (3 Bft)
10.10.2014 00:38 13,1 C 11,1 C 90 % 1009,7 hPa 0,0 l/m 0 min 0 min 0 W/m 10,5 km/h (2 Bft)
10.10.2014 00:40 13,1 C 11,1 C 90 % 1009,6 hPa 0,0 l/m 0 min 0 min 0 W/m 14,6 km/h (3 Bft)
10.10.2014 00:42 13,1 C 11,1 C 90 % 1009,7 hPa 0,0 l/m 0 min 0 min 0 W/m 12,6 km/h (3 Bft)
10.10.2014 00:44 13,1 C 11,7 C 90 % 1009,7 hPa 0,0 l/m 0 min 0 min 0 W/m 14,6 km/h (3 Bft)
10.10.2014 00:46 13,1 C 11,1 C 90 % 1009,8 hPa 0,0 l/m 0 min 0 min 0 W/m 12,6 km/h (3 Bft)
10.10.2014 00:48 13,1 C 11,1 C 90 % 1009,9 hPa 0,0 l/m 0 min 0 min 0 W/m 12,6 km/h (3 Bft)
10.10.2014 00:50 13,0 C 11,1 C 90 % 1009,8 hPa 0,0 l/m 0 min 0 min 0 W/m 12,6 km/h (3 Bft)
10.10.2014 00:52 13,0 C 11,1 C 90 % 1009,7 hPa 0,0 l/m 0 min 0 min 0 W/m 16,7 km/h (3 Bft)
10.10.2014 00:54 13,0 C 11,1 C 90 % 1009,8 hPa 0,0 l/m 0 min 0 min 0 W/m 10,5 km/h (2 Bft)
10.10.2014 00:56 13,0 C 11,1 C 90 % 1009,8 hPa 0,0 l/m 0 min 0 min 0 W/m 10,5 km/h (2 Bft)
10.10.2014 00:58 12,9 C 11,1 C 90 % 1009,9 hPa 0,0 l/m 0 min 0 min 0 W/m 10,5 km/h (2 Bft)
10.10.2014 01:00 12,9 C 11,1 C 90 % 1009,9 hPa 0,0 l/m 0 min 0 min 0 W/m 10,5 km/h (2 Bft)
10.10.2014 01:02 12,9 C 11,1 C 90 % 1010,0 hPa 0,0 l/m 0 min 0 min 0 W/m 10,5 km/h (2 Bft)
10.10.2014 01:04 12,9 C 11,1 C 90 % 1009,9 hPa 0,0 l/m 0 min 0 min 0 W/m 8,4 km/h (2 Bft)
10.10.2014 01:06 12,9 C 11,1 C 90 % 1010,0 hPa 0,0 l/m 0 min 0 min 0 W/m 8,4 km/h (2 Bft)
10.10.2014 01:08 12,9 C 11,1 C 91 % 1010,0 hPa 0,0 l/m 0 min 0 min 0 W/m 10,5 km/h (2 Bft)
10.10.2014 01:10 12,9 C 11,1 C 91 % 1010,0 hPa 0,0 l/m 0 min 0 min 0 W/m 10,5 km/h (2 Bft)
10.10.2014 01:12 12,9 C 11,1 C 91 % 1010,0 hPa 0,0 l/m 0 min 0 min 0 W/m 10,5 km/h (2 Bft)
10.10.2014 01:14 12,9 C 11,1 C 91 % 1009,9 hPa 0,0 l/m 0 min 0 min 0 W/m 8,4 km/h (2 Bft)
10.10.2014 01:16 12,8 C 11,1 C 91 % 1009,9 hPa 0,0 l/m 0 min 0 min 0 W/m 10,5 km/h (2 Bft)
10.10.2014 01:18 12,8 C 11,1 C 91 % 1010,0 hPa 0,0 l/m 0 min 0 min 0 W/m 6,3 km/h (2 Bft)
10.10.2014 01:20 12,8 C 11,1 C 91 % 1010,0 hPa 0,0 l/m 0 min 0 min 0 W/m 10,5 km/h (2 Bft)
10.10.2014 01:22 12,8 C 11,1 C 91 % 1010,0 hPa 0,0 l/m 0 min 0 min 0 W/m 8,4 km/h (2 Bft)
10.10.2014 01:24 12,8 C 11,1 C 91 % 1009,9 hPa 0,0 l/m 0 min 0 min 0 W/m 8,4 km/h (2 Bft)
10.10.2014 01:26 12,8 C 11,1 C 91 % 1009,9 hPa 0,0 l/m 0 min 0 min 0 W/m 6,3 km/h (2 Bft)
10.10.2014 01:28 12,8 C 11,1 C 91 % 1009,8 hPa 0,0 l/m 0 min 0 min 0 W/m 8,4 km/h (2 Bft)
10.10.2014 01:30 12,8 C 11,1 C 91 % 1009,9 hPa 0,0 l/m 0 min 0 min 0 W/m 8,4 km/h (2 Bft)
10.10.2014 01:32 12,8 C 11,1 C 91 % 1009,9 hPa 0,0 l/m 0 min 0 min 0 W/m 8,4 km/h (2 Bft)
10.10.2014 01:34 12,7 C 11,1 C 91 % 1009,9 hPa 0,0 l/m 0 min 0 min 0 W/m 6,3 km/h (2 Bft)
10.10.2014 01:36 12,7 C 11,1 C 91 % 1009,9 hPa 0,0 l/m 0 min 0 min 0 W/m 12,6 km/h (3 Bft)
10.10.2014 01:38 12,7 C 11,1 C 91 % 1010,1 hPa 0,0 l/m 0 min 0 min 0 W/m 12,6 km/h (3 Bft)
10.10.2014 01:40 12,7 C 11,1 C 91 % 1010,0 hPa 0,0 l/m 0 min 0 min 0 W/m 10,5 km/h (2 Bft)
10.10.2014 01:42 12,7 C 11,1 C 91 % 1010,1 hPa 0,0 l/m 0 min 0 min 0 W/m 10,5 km/h (2 Bft)
10.10.2014 01:44 12,7 C 11,1 C 91 % 1010,1 hPa 0,0 l/m 0 min 0 min 0 W/m 10,5 km/h (2 Bft)
10.10.2014 01:46 12,7 C 11,1 C 91 % 1010,0 hPa 0,0 l/m 0 min 0 min 0 W/m 10,5 km/h (2 Bft)
10.10.2014 01:48 12,7 C 11,1 C 91 % 1010,0 hPa 0,0 l/m 0 min 0 min 0 W/m 12,6 km/h (3 Bft)
10.10.2014 01:50 12,7 C 11,1 C 91 % 1010,0 hPa 0,0 l/m 0 min 0 min 0 W/m 12,6 km/h (3 Bft)
10.10.2014 01:52 12,7 C 11,1 C 91 % 1010,1 hPa 0,0 l/m 0 min 0 min 0 W/m 12,6 km/h (3 Bft)
10.10.2014 01:54 12,7 C 11,1 C 91 % 1010,1 hPa 0,0 l/m 0 min 0 min 0 W/m 10,5 km/h (2 Bft)
10.10.2014 01:56 12,7 C 11,1 C 91 % 1010,1 hPa 0,0 l/m 0 min 0 min 0 W/m 10,5 km/h (2 Bft)
10.10.2014 01:58 12,7 C 11,7 C 92 % 1010,1 hPa 0,0 l/m 0 min 0 min 0 W/m 10,5 km/h (2 Bft)
10.10.2014 02:00 12,7 C 11,7 C 92 % 1010,1 hPa 0,0 l/m 0 min 0 min 0 W/m 12,6 km/h (3 Bft)
10.10.2014 02:02 12,7 C 11,7 C 92 % 1010,1 hPa 0,0 l/m 0 min 0 min 0 W/m 14,6 km/h (3 Bft)
10.10.2014 02:04 12,7 C 11,7 C 92 % 1010,1 hPa 0,0 l/m 0 min 0 min 0 W/m 16,7 km/h (3 Bft)
10.10.2014 02:06 12,7 C 11,7 C 92 % 1010,1 hPa 0,0 l/m 0 min 0 min 0 W/m 14,6 km/h (3 Bft)
10.10.2014 02:08 12,7 C 11,7 C 92 % 1010,1 hPa 0,0 l/m 0 min 0 min 0 W/m 12,6 km/h (3 Bft)
10.10.2014 02:10 12,7 C 11,7 C 92 % 1010,1 hPa 0,0 l/m 0 min 0 min 0 W/m 14,6 km/h (3 Bft)
10.10.2014 02:12 12,8 C 11,7 C 92 % 1010,1 hPa 0,0 l/m 0 min 0 min 0 W/m 12,6 km/h (3 Bft)
10.10.2014 02:14 12,8 C 11,7 C 92 % 1010,1 hPa 0,0 l/m 0 min 0 min 0 W/m 12,6 km/h (3 Bft)
10.10.2014 02:16 12,8 C 11,7 C 92 % 1010,1 hPa 0,0 l/m 0 min 0 min 0 W/m 14,6 km/h (3 Bft)
10.10.2014 02:18 12,8 C 11,7 C 92 % 1010,2 hPa 0,0 l/m 0 min 0 min 0 W/m 16,7 km/h (3 Bft)
10.10.2014 02:20 12,8 C 11,7 C 92 % 1010,1 hPa 0,0 l/m 0 min 0 min 0 W/m 12,6 km/h (3 Bft)
10.10.2014 02:22 12,8 C 11,7 C 92 % 1010,2 hPa 0,0 l/m 0 min 0 min 0 W/m 16,7 km/h (3 Bft)
10.10.2014 02:24 12,8 C 11,7 C 92 % 1010,3 hPa 0,0 l/m 0 min 0 min 0 W/m 12,6 km/h (3 Bft)
10.10.2014 02:26 12,9 C 11,7 C 92 % 1010,3 hPa 0,0 l/m 0 min 0 min 0 W/m 14,6 km/h (3 Bft)
10.10.2014 02:28 12,9 C 12,2 C 92 % 1010,4 hPa 0,0 l/m 0 min 0 min 0 W/m 8,4 km/h (2 Bft)
10.10.2014 02:30 12,9 C 12,2 C 92 % 1010,3 hPa 0,0 l/m 0 min 0 min 0 W/m 14,6 km/h (3 Bft)
10.10.2014 02:32 12,9 C 12,2 C 92 % 1010,3 hPa 0,0 l/m 0 min 0 min 0 W/m 14,6 km/h (3 Bft)
10.10.2014 02:34 13,0 C 12,2 C 92 % 1010,4 hPa 0,0 l/m 0 min 0 min 0 W/m 12,6 km/h (3 Bft)
10.10.2014 02:36 13,0 C 12,2 C 93 % 1010,4 hPa 0,0 l/m 0 min 0 min 0 W/m 14,6 km/h (3 Bft)
10.10.2014 02:38 13,0 C 12,2 C 92 % 1010,5 hPa 0,0 l/m 0 min 0 min 0 W/m 14,6 km/h (3 Bft)
10.10.2014 02:40 13,1 C 12,2 C 92 % 1010,5 hPa 0,0 l/m 0 min 2 min 0 W/m 12,6 km/h (3 Bft)
10.10.2014 02:42 13,1 C 12,2 C 92 % 1010,5 hPa 0,0 l/m 0 min 2 min 0 W/m 14,6 km/h (3 Bft)
10.10.2014 02:44 13,1 C 12,2 C 93 % 1010,5 hPa 0,0 l/m 0 min 2 min 0 W/m 16,7 km/h (3 Bft)
10.10.2014 02:46 13,2 C 12,2 C 92 % 1010,5 hPa 0,0 l/m 0 min 0 min 0 W/m 16,7 km/h (3 Bft)
10.10.2014 02:48 13,2 C 12,2 C 92 % 1010,6 hPa 0,0 l/m 0 min 0 min 0 W/m 14,6 km/h (3 Bft)
10.10.2014 02:50 13,2 C 11,7 C 92 % 1010,5 hPa 0,0 l/m 0 min 0 min 0 W/m 14,6 km/h (3 Bft)
10.10.2014 02:52 13,2 C 11,7 C 92 % 1010,4 hPa 0,0 l/m 0 min 0 min 0 W/m 12,6 km/h (3 Bft)
10.10.2014 02:54 13,3 C 11,7 C 92 % 1010,5 hPa 0,0 l/m 0 min 2 min 0 W/m 8,4 km/h (2 Bft)
10.10.2014 02:56 13,3 C 11,7 C 92 % 1010,5 hPa 0,0 l/m 0 min 0 min 0 W/m 6,3 km/h (2 Bft)
10.10.2014 02:58 13,3 C 11,7 C 92 % 1010,7 hPa 0,0 l/m 0 min 2 min 0 W/m 6,3 km/h (2 Bft)
10.10.2014 03:00 13,3 C 11,7 C 92 % 1010,9 hPa 0,0 l/m 0 min 2 min 0 W/m 10,5 km/h (2 Bft)
10.10.2014 03:02 13,3 C 11,7 C 92 % 1010,9 hPa 0,0 l/m 0 min 2 min 0 W/m 10,5 km/h (2 Bft)
10.10.2014 03:04 13,3 C 11,7 C 92 % 1010,9 hPa 0,0 l/m 0 min 2 min 0 W/m 6,3 km/h (2 Bft)
10.10.2014 03:06 13,3 C 11,7 C 92 % 1010,9 hPa 0,0 l/m 0 min 0 min 0 W/m 2,1 km/h (1 Bft)
10.10.2014 03:08 13,3 C 11,7 C 92 % 1010,9 hPa 0,0 l/m 0 min 2 min 0 W/m 6,3 km/h (2 Bft)
10.10.2014 03:10 13,4 C 11,7 C 92 % 1010,9 hPa 0,0 l/m 0 min 2 min 0 W/m 8,4 km/h (2 Bft)
10.10.2014 03:12 13,4 C 11,7 C 92 % 1011,1 hPa 0,2 l/m 0 min 2 min 0 W/m 4,2 km/h (1 Bft)
10.10.2014 03:14 13,4 C 11,7 C 92 % 1011,2 hPa 1,2 l/m 0 min 2 min 0 W/m 14,6 km/h (3 Bft)
10.10.2014 03:16 13,4 C 11,7 C 93 % 1011,1 hPa 1,2 l/m 0 min 2 min 0 W/m 10,5 km/h (2 Bft)
10.10.2014 03:18 13,4 C 11,7 C 93 % 1011,1 hPa 0,2 l/m 0 min 2 min 0 W/m 10,5 km/h (2 Bft)
10.10.2014 03:20 13,4 C 11,7 C 93 % 1011,1 hPa 0,2 l/m 0 min 2 min 0 W/m 10,5 km/h (2 Bft)
10.10.2014 03:22 13,5 C 11,7 C 93 % 1011,0 hPa 0,0 l/m 0 min 2 min 0 W/m 12,6 km/h (3 Bft)
10.10.2014 03:24 13,4 C 11,7 C 93 % 1011,0 hPa 0,0 l/m 0 min 2 min 0 W/m 8,4 km/h (2 Bft)
10.10.2014 03:26 13,4 C 11,7 C 93 % 1011,0 hPa 0,0 l/m 0 min 2 min 0 W/m 16,7 km/h (3 Bft)
10.10.2014 03:28 13,5 C 11,7 C 93 % 1011,1 hPa 0,0 l/m 0 min 2 min 0 W/m 12,6 km/h (3 Bft)
10.10.2014 03:30 13,5 C 11,7 C 93 % 1011,0 hPa 0,2 l/m 0 min 2 min 0 W/m 10,5 km/h (2 Bft)
10.10.2014 03:32 13,4 C 11,7 C 93 % 1010,9 hPa 0,0 l/m 0 min 2 min 0 W/m 14,6 km/h (3 Bft)
10.10.2014 03:34 13,4 C 11,7 C 93 % 1010,9 hPa 0,0 l/m 0 min 2 min 0 W/m 6,3 km/h (2 Bft)
10.10.2014 03:36 13,4 C 11,7 C 93 % 1010,9 hPa 0,0 l/m 0 min 2 min 0 W/m 10,5 km/h (2 Bft)
10.10.2014 03:38 13,4 C 11,7 C 93 % 1011,0 hPa 0,0 l/m 0 min 2 min 0 W/m 6,3 km/h (2 Bft)
10.10.2014 03:40 13,4 C 11,7 C 93 % 1011,0 hPa 0,0 l/m 0 min 2 min 0 W/m 6,3 km/h (2 Bft)
10.10.2014 03:42 13,4 C 11,7 C 93 % 1011,0 hPa 0,0 l/m 0 min 2 min 0 W/m 6,3 km/h (2 Bft)
10.10.2014 03:44 13,4 C 11,7 C 94 % 1010,9 hPa 0,0 l/m 0 min 2 min 0 W/m 8,4 km/h (2 Bft)
10.10.2014 03:46 13,4 C 11,7 C 94 % 1010,9 hPa 0,0 l/m 0 min 0 min 0 W/m 6,3 km/h (2 Bft)
10.10.2014 03:48 13,4 C 11,7 C 94 % 1010,8 hPa 0,0 l/m 0 min 0 min 0 W/m 8,4 km/h (2 Bft)
10.10.2014 03:50 13,4 C 11,7 C 94 % 1010,8 hPa 0,0 l/m 0 min 2 min 0 W/m 6,3 km/h (2 Bft)
10.10.2014 03:52 13,4 C 11,7 C 94 % 1010,7 hPa 0,0 l/m 0 min 2 min 0 W/m 6,3 km/h (2 Bft)
10.10.2014 03:54 13,3 C 11,7 C 94 % 1010,8 hPa 0,0 l/m 0 min 0 min 0 W/m 4,2 km/h (1 Bft)
10.10.2014 03:56 13,3 C 11,7 C 94 % 1010,6 hPa 0,0 l/m 0 min 2 min 0 W/m 6,3 km/h (2 Bft)
10.10.2014 03:58 13,3 C 11,7 C 94 % 1010,7 hPa 0,0 l/m 0 min 2 min 0 W/m 6,3 km/h (2 Bft)
10.10.2014 04:00 13,3 C 11,7 C 94 % 1010,7 hPa 0,0 l/m 0 min 2 min 0 W/m 6,3 km/h (2 Bft)
10.10.2014 04:05 13,3 C 11,7 C 94 % 1010,6 hPa 0,0 l/m 0 min 0 min 0 W/m 4,2 km/h (1 Bft)
10.10.2014 04:06 13,3 C 11,7 C 94 % 1010,6 hPa 0,0 l/m 0 min 0 min 0 W/m 6,3 km/h (2 Bft)
10.10.2014 04:08 13,3 C 11,7 C 94 % 1010,6 hPa 0,0 l/m 0 min 2 min 0 W/m 4,2 km/h (1 Bft)
10.10.2014 04:10 13,3 C 11,7 C 94 % 1010,6 hPa 0,0 l/m 0 min 2 min 0 W/m 6,3 km/h (2 Bft)
10.10.2014 04:12 13,2 C 11,7 C 94 % 1010,6 hPa 0,0 l/m 0 min 0 min 0 W/m 4,2 km/h (1 Bft)
10.10.2014 04:14 13,2 C 11,7 C 94 % 1010,7 hPa 0,0 l/m 0 min 0 min 0 W/m 4,2 km/h (1 Bft)
10.10.2014 04:16 13,2 C 11,7 C 94 % 1010,6 hPa 0,0 l/m 0 min 0 min 0 W/m 6,3 km/h (2 Bft)
10.10.2014 04:18 13,2 C 11,7 C 94 % 1010,6 hPa 0,0 l/m 0 min 0 min 0 W/m 8,4 km/h (2 Bft)
10.10.2014 04:20 13,2 C 11,7 C 94 % 1010,7 hPa 0,0 l/m 0 min 0 min 0 W/m 8,4 km/h (2 Bft)
10.10.2014 04:22 13,2 C 11,7 C 94 % 1010,6 hPa 0,0 l/m 0 min 0 min 0 W/m 8,4 km/h (2 Bft)
10.10.2014 04:24 13,2 C 11,7 C 94 % 1010,7 hPa 0,0 l/m 0 min 0 min 0 W/m 10,5 km/h (2 Bft)
10.10.2014 04:26 13,2 C 11,7 C 94 % 1010,8 hPa 0,0 l/m 0 min 0 min 0 W/m 10,5 km/h (2 Bft)
10.10.2014 04:28 13,1 C 11,7 C 94 % 1010,8 hPa 0,0 l/m 0 min 0 min 0 W/m 8,4 km/h (2 Bft)
10.10.2014 04:30 13,1 C 11,7 C 94 % 1010,8 hPa 0,0 l/m 0 min 0 min 0 W/m 10,5 km/h (2 Bft)
10.10.2014 04:32 13,1 C 11,7 C 94 % 1010,8 hPa 0,0 l/m 0 min 0 min 0 W/m 10,5 km/h (2 Bft)
10.10.2014 04:34 13,1 C 11,7 C 95 % 1010,8 hPa 0,0 l/m 0 min 0 min 0 W/m 14,6 km/h (3 Bft)
10.10.2014 04:36 13,1 C 11,7 C 95 % 1010,7 hPa 0,0 l/m 0 min 0 min 0 W/m 12,6 km/h (3 Bft)
10.10.2014 04:38 13,1 C 11,7 C 95 % 1010,8 hPa 0,0 l/m 0 min 0 min 0 W/m 14,6 km/h (3 Bft)
10.10.2014 04:40 13,1 C 11,7 C 95 % 1010,8 hPa 0,0 l/m 0 min 0 min 0 W/m 12,6 km/h (3 Bft)
10.10.2014 04:42 13,1 C 11,7 C 95 % 1010,8 hPa 0,0 l/m 0 min 0 min 0 W/m 16,7 km/h (3 Bft)
10.10.2014 04:44 13,1 C 11,7 C 95 % 1010,8 hPa 0,0 l/m 0 min 0 min 0 W/m 12,6 km/h (3 Bft)
10.10.2014 04:46 13,1 C 11,7 C 95 % 1010,8 hPa 0,0 l/m 0 min 0 min 0 W/m 12,6 km/h (3 Bft)
10.10.2014 04:48 13,1 C 11,7 C 95 % 1010,7 hPa 0,0 l/m 0 min 0 min 0 W/m 14,6 km/h (3 Bft)
10.10.2014 04:50 13,1 C 11,7 C 95 % 1010,7 hPa 0,0 l/m 0 min 0 min 0 W/m 8,4 km/h (2 Bft)
10.10.2014 04:52 13,1 C 11,7 C 95 % 1010,9 hPa 0,0 l/m 0 min 0 min 0 W/m 8,4 km/h (2 Bft)
10.10.2014 04:54 13,1 C 11,7 C 95 % 1010,9 hPa 0,0 l/m 0 min 0 min 0 W/m 12,6 km/h (3 Bft)
10.10.2014 04:56 13,0 C 11,7 C 95 % 1010,8 hPa 0,0 l/m 0 min 0 min 0 W/m 10,5 km/h (2 Bft)
10.10.2014 04:58 13,0 C 11,1 C 95 % 1010,8 hPa 0,0 l/m 0 min 0 min 0 W/m 10,5 km/h (2 Bft)
10.10.2014 05:00 13,0 C 11,1 C 95 % 1010,8 hPa 0,0 l/m 0 min 0 min 0 W/m 12,6 km/h (3 Bft)
10.10.2014 05:02 13,0 C 11,1 C 95 % 1010,8 hPa 0,0 l/m 0 min 0 min 0 W/m 16,7 km/h (3 Bft)
10.10.2014 05:04 13,0 C 11,1 C 95 % 1010,8 hPa 0,0 l/m 0 min 0 min 0 W/m 16,7 km/h (3 Bft)
10.10.2014 05:06 13,0 C 11,1 C 95 % 1010,8 hPa 0,0 l/m 0 min 0 min 0 W/m 12,6 km/h (3 Bft)
10.10.2014 05:08 13,0 C 11,7 C 95 % 1010,8 hPa 0,0 l/m 0 min 0 min 0 W/m 8,4 km/h (2 Bft)
10.10.2014 05:10 12,9 C 11,1 C 95 % 1010,8 hPa 0,0 l/m 0 min 0 min 0 W/m 14,6 km/h (3 Bft)
10.10.2014 05:12 12,9 C 11,1 C 95 % 1010,8 hPa 0,0 l/m 0 min 0 min 0 W/m 6,3 km/h (2 Bft)
10.10.2014 05:14 12,9 C 11,1 C 95 % 1010,8 hPa 0,0 l/m 0 min 0 min 0 W/m 10,5 km/h (2 Bft)
10.10.2014 05:16 12,9 C 11,1 C 95 % 1010,9 hPa 0,0 l/m 0 min 0 min 0 W/m 12,6 km/h (3 Bft)
10.10.2014 05:18 12,9 C 11,1 C 95 % 1010,9 hPa 0,0 l/m 0 min 0 min 0 W/m 16,7 km/h (3 Bft)
10.10.2014 05:20 12,9 C 11,1 C 95 % 1010,9 hPa 0,0 l/m 0 min 0 min 0 W/m 14,6 km/h (3 Bft)
10.10.2014 05:22 12,9 C 11,1 C 95 % 1011,0 hPa 0,0 l/m 0 min 0 min 0 W/m 14,6 km/h (3 Bft)
10.10.2014 05:24 12,9 C 11,1 C 95 % 1011,0 hPa 0,0 l/m 0 min 0 min 0 W/m 14,6 km/h (3 Bft)
10.10.2014 05:26 12,9 C 11,1 C 96 % 1011,0 hPa 0,0 l/m 0 min 0 min 0 W/m 8,4 km/h (2 Bft)
10.10.2014 05:28 12,9 C 11,1 C 96 % 1011,0 hPa 0,0 l/m 0 min 0 min 0 W/m 12,6 km/h (3 Bft)
10.10.2014 05:30 12,9 C 11,1 C 96 % 1011,0 hPa 0,0 l/m 0 min 0 min 0 W/m 6,3 km/h (2 Bft)
10.10.2014 05:32 12,9 C 11,1 C 96 % 1011,0 hPa 0,0 l/m 0 min 0 min 0 W/m 8,4 km/h (2 Bft)
10.10.2014 05:34 12,8 C 11,1 C 96 % 1011,0 hPa 0,0 l/m 0 min 0 min 0 W/m 14,6 km/h (3 Bft)
10.10.2014 05:36 12,8 C 11,1 C 96 % 1011,1 hPa 0,0 l/m 0 min 0 min 0 W/m 14,6 km/h (3 Bft)
10.10.2014 05:38 12,8 C 11,1 C 96 % 1011,1 hPa 0,0 l/m 0 min 0 min 0 W/m 10,5 km/h (2 Bft)
10.10.2014 05:40 12,8 C 11,1 C 96 % 1011,1 hPa 0,0 l/m 0 min 0 min 0 W/m 8,4 km/h (2 Bft)
10.10.2014 05:42 12,8 C 11,1 C 96 % 1011,1 hPa 0,0 l/m 0 min 0 min 0 W/m 12,6 km/h (3 Bft)
10.10.2014 05:44 12,8 C 11,1 C 96 % 1011,1 hPa 0,0 l/m 0 min 0 min 0 W/m 8,4 km/h (2 Bft)
10.10.2014 05:46 12,8 C 11,1 C 96 % 1011,2 hPa 0,0 l/m 0 min 0 min 0 W/m 8,4 km/h (2 Bft)
10.10.2014 05:48 12,8 C 11,1 C 96 % 1011,2 hPa 0,0 l/m 0 min 0 min 0 W/m 8,4 km/h (2 Bft)
10.10.2014 05:50 12,8 C 11,1 C 96 % 1011,2 hPa 0,0 l/m 0 min 0 min 0 W/m 4,2 km/h (1 Bft)
10.10.2014 05:52 12,7 C 11,1 C 96 % 1011,2 hPa 0,0 l/m 0 min 0 min 0 W/m 10,5 km/h (2 Bft)
10.10.2014 05:54 12,7 C 11,1 C 96 % 1011,1 hPa 0,0 l/m 0 min 0 min 0 W/m 8,4 km/h (2 Bft)
10.10.2014 05:56 12,7 C 11,1 C 96 % 1011,1 hPa 0,0 l/m 0 min 0 min 0 W/m 6,3 km/h (2 Bft)
10.10.2014 05:58 12,7 C 11,1 C 96 % 1011,2 hPa 0,0 l/m 0 min 0 min 0 W/m 4,2 km/h (1 Bft)
10.10.2014 06:00 12,7 C 11,1 C 96 % 1011,1 hPa 0,0 l/m 0 min 0 min 0 W/m 6,3 km/h (2 Bft)
10.10.2014 06:02 12,7 C 11,1 C 96 % 1011,2 hPa 0,0 l/m 0 min 0 min 0 W/m 6,3 km/h (2 Bft)
10.10.2014 06:05 12,7 C 11,1 C 96 % 1011,2 hPa 0,0 l/m 0 min 0 min 0 W/m 4,2 km/h (1 Bft)
10.10.2014 06:08 12,7 C 11,1 C 96 % 1011,2 hPa 0,0 l/m 0 min 0 min 0 W/m 8,4 km/h (2 Bft)
10.10.2014 06:10 12,7 C 11,1 C 96 % 1011,3 hPa 0,0 l/m 0 min 0 min 0 W/m 6,3 km/h (2 Bft)
10.10.2014 06:12 12,6 C 11,1 C 96 % 1011,3 hPa 0,0 l/m 0 min 0 min 0 W/m 6,3 km/h (2 Bft)
10.10.2014 06:14 12,6 C 11,1 C 96 % 1011,4 hPa 0,0 l/m 0 min 0 min 0 W/m 6,3 km/h (2 Bft)
10.10.2014 06:16 12,6 C 11,1 C 96 % 1011,4 hPa 0,0 l/m 0 min 0 min 0 W/m 8,4 km/h (2 Bft)
10.10.2014 06:18 12,6 C 11,1 C 96 % 1011,3 hPa 0,0 l/m 0 min 0 min 0 W/m 8,4 km/h (2 Bft)
10.10.2014 06:20 12,6 C 11,1 C 96 % 1011,3 hPa 0,0 l/m 0 min 0 min 0 W/m 4,2 km/h (1 Bft)
10.10.2014 06:22 12,6 C 11,1 C 96 % 1011,4 hPa 0,0 l/m 0 min 0 min 0 W/m 8,4 km/h (2 Bft)
10.10.2014 06:24 12,6 C 11,1 C 96 % 1011,4 hPa 0,0 l/m 0 min 0 min 0 W/m 6,3 km/h (2 Bft)
10.10.2014 06:26 12,6 C 11,1 C 96 % 1011,4 hPa 0,0 l/m 0 min 0 min 0 W/m 8,4 km/h (2 Bft)
10.10.2014 06:28 12,6 C 11,1 C 96 % 1011,4 hPa 0,0 l/m 0 min 0 min 0 W/m 8,4 km/h (2 Bft)
10.10.2014 06:30 12,6 C 11,1 C 96 % 1011,4 hPa 0,0 l/m 0 min 0 min 0 W/m 8,4 km/h (2 Bft)
10.10.2014 06:32 12,6 C 11,1 C 96 % 1011,4 hPa 0,0 l/m 0 min 0 min 0 W/m 6,3 km/h (2 Bft)
10.10.2014 06:34 12,6 C 11,1 C 96 % 1011,4 hPa 0,0 l/m 0 min 0 min 0 W/m 8,4 km/h (2 Bft)
10.10.2014 06:36 12,6 C 11,1 C 96 % 1011,5 hPa 0,0 l/m 0 min 0 min 0 W/m 8,4 km/h (2 Bft)
10.10.2014 06:38 12,5 C 11,1 C 96 % 1011,6 hPa 0,0 l/m 0 min 0 min 0 W/m 10,5 km/h (2 Bft)
10.10.2014 06:40 12,5 C 11,1 C 96 % 1011,6 hPa 0,0 l/m 0 min 0 min 0 W/m 10,5 km/h (2 Bft)
10.10.2014 06:42 12,5 C 11,1 C 96 % 1011,6 hPa 0,0 l/m 0 min 0 min 0 W/m 10,5 km/h (2 Bft)
10.10.2014 06:44 12,5 C 11,1 C 96 % 1011,8 hPa 0,0 l/m 0 min 0 min 0 W/m 6,3 km/h (2 Bft)
10.10.2014 06:46 12,5 C 10,6 C 96 % 1011,8 hPa 0,0 l/m 0 min 0 min 0 W/m 8,4 km/h (2 Bft)
10.10.2014 06:48 12,4 C 10,6 C 96 % 1011,7 hPa 0,0 l/m 0 min 0 min 0 W/m 8,4 km/h (2 Bft)
10.10.2014 06:50 12,4 C 10,6 C 96 % 1011,7 hPa 0,0 l/m 0 min 0 min 0 W/m 8,4 km/h (2 Bft)
10.10.2014 06:52 12,4 C 10,6 C 96 % 1011,7 hPa 0,0 l/m 0 min 0 min 0 W/m 8,4 km/h (2 Bft)
10.10.2014 06:54 12,4 C 10,6 C 96 % 1011,7 hPa 0,0 l/m 0 min 0 min 0 W/m 10,5 km/h (2 Bft)
10.10.2014 06:56 12,4 C 10,6 C 96 % 1011,7 hPa 0,0 l/m 0 min 0 min 0 W/m 6,3 km/h (2 Bft)
10.10.2014 06:58 12,4 C 10,6 C 96 % 1011,7 hPa 0,0 l/m 0 min 0 min 0 W/m 8,4 km/h (2 Bft)
10.10.2014 07:00 12,4 C 10,6 C 96 % 1011,7 hPa 0,0 l/m 0 min 0 min 0 W/m 8,4 km/h (2 Bft)
10.10.2014 07:02 12,3 C 10,6 C 96 % 1011,8 hPa 0,0 l/m 0 min 0 min 0 W/m 10,5 km/h (2 Bft)
10.10.2014 07:04 12,3 C 10,6 C 96 % 1011,8 hPa 0,0 l/m 0 min 0 min 0 W/m 8,4 km/h (2 Bft)
10.10.2014 07:06 12,3 C 10,6 C 96 % 1011,8 hPa 0,0 l/m 0 min 0 min 0 W/m 10,5 km/h (2 Bft)
10.10.2014 07:08 12,3 C 10,6 C 96 % 1011,8 hPa 0,0 l/m 0 min 0 min 0 W/m 10,5 km/h (2 Bft)
10.10.2014 07:10 12,3 C 10,6 C 96 % 1011,8 hPa 0,0 l/m 0 min 0 min 0 W/m 8,4 km/h (2 Bft)
10.10.2014 07:12 12,3 C 10,6 C 96 % 1011,8 hPa 0,0 l/m 0 min 0 min 0 W/m 8,4 km/h (2 Bft)
10.10.2014 07:14 12,3 C 10,6 C 96 % 1011,8 hPa 0,0 l/m 0 min 0 min 0 W/m 10,5 km/h (2 Bft)
10.10.2014 07:16 12,3 C 10,6 C 96 % 1011,8 hPa 0,0 l/m 0 min 0 min 0 W/m 12,6 km/h (3 Bft)
10.10.2014 07:18 12,3 C 10,6 C 96 % 1011,9 hPa 0,0 l/m 0 min 0 min 0 W/m 14,6 km/h (3 Bft)
10.10.2014 07:20 12,2 C 10,6 C 96 % 1011,9 hPa 0,0 l/m 0 min 0 min 0 W/m 12,6 km/h (3 Bft)
10.10.2014 07:22 12,2 C 10,6 C 96 % 1011,8 hPa 0,0 l/m 0 min 0 min 0 W/m 14,6 km/h (3 Bft)
10.10.2014 07:24 12,2 C 10,6 C 96 % 1011,9 hPa 0,0 l/m 0 min 0 min 0 W/m 12,6 km/h (3 Bft)
10.10.2014 07:26 12,2 C 10,6 C 96 % 1012,0 hPa 0,0 l/m 0 min 0 min 0 W/m 8,4 km/h (2 Bft)
10.10.2014 07:28 12,2 C 10,6 C 96 % 1012,0 hPa 0,0 l/m 0 min 0 min 0 W/m 12,6 km/h (3 Bft)
10.10.2014 07:30 12,2 C 10,6 C 96 % 1012,0 hPa 0,0 l/m 0 min 0 min 0 W/m 12,6 km/h (3 Bft)
10.10.2014 07:32 12,2 C 10,6 C 97 % 1011,9 hPa 0,0 l/m 0 min 0 min 0 W/m 8,4 km/h (2 Bft)
10.10.2014 07:34 12,2 C 10,6 C 97 % 1012,0 hPa 0,0 l/m 0 min 0 min 0 W/m 10,5 km/h (2 Bft)
10.10.2014 07:36 12,2 C 10,6 C 97 % 1012,0 hPa 0,0 l/m 0 min 0 min 0 W/m 8,4 km/h (2 Bft)
10.10.2014 07:38 12,2 C 10,6 C 97 % 1012,0 hPa 0,0 l/m 0 min 0 min 0 W/m 10,5 km/h (2 Bft)
10.10.2014 07:40 12,2 C 10,6 C 97 % 1012,1 hPa 0,0 l/m 0 min 0 min 0 W/m 8,4 km/h (2 Bft)
10.10.2014 07:42 12,2 C 10,6 C 97 % 1012,1 hPa 0,0 l/m 0 min 0 min 0 W/m 12,6 km/h (3 Bft)
10.10.2014 07:44 12,2 C 10,6 C 97 % 1012,2 hPa 0,0 l/m 0 min 0 min 0 W/m 12,6 km/h (3 Bft)
10.10.2014 07:46 12,2 C 10,6 C 97 % 1012,2 hPa 0,0 l/m 0 min 0 min 0 W/m 10,5 km/h (2 Bft)
10.10.2014 07:48 12,2 C 10,6 C 97 % 1012,3 hPa 0,0 l/m 0 min 0 min 0 W/m 10,5 km/h (2 Bft)
10.10.2014 07:50 12,2 C 10,6 C 97 % 1012,3 hPa 0,0 l/m 0 min 0 min 0 W/m 10,5 km/h (2 Bft)
10.10.2014 07:52 12,2 C 10,6 C 97 % 1012,3 hPa 0,0 l/m 0 min 0 min 0 W/m 6,3 km/h (2 Bft)
10.10.2014 07:54 12,1 C 10,6 C 97 % 1012,3 hPa 0,0 l/m 0 min 0 min 4 W/m 6,3 km/h (2 Bft)
10.10.2014 07:56 12,2 C 10,6 C 97 % 1012,3 hPa 0,0 l/m 0 min 0 min 7 W/m 6,3 km/h (2 Bft)
10.10.2014 07:58 12,1 C 10,6 C 97 % 1012,3 hPa 0,0 l/m 0 min 0 min 8 W/m 10,5 km/h (2 Bft)
10.10.2014 08:00 12,1 C 10,6 C 97 % 1012,3 hPa 0,0 l/m 0 min 0 min 11 W/m 4,2 km/h (1 Bft)
10.10.2014 08:02 12,2 C 10,6 C 97 % 1012,3 hPa 0,0 l/m 2 min 0 min 14 W/m 6,3 km/h (2 Bft)
10.10.2014 08:04 12,1 C 10,6 C 97 % 1012,3 hPa 0,0 l/m 2 min 0 min 17 W/m 6,3 km/h (2 Bft)
10.10.2014 08:06 12,1 C 10,6 C 97 % 1012,3 hPa 0,0 l/m 2 min 0 min 19 W/m 6,3 km/h (2 Bft)
10.10.2014 08:08 12,1 C 10,6 C 97 % 1012,3 hPa 0,0 l/m 2 min 0 min 21 W/m 6,3 km/h (2 Bft)
10.10.2014 08:10 12,1 C 10,6 C 97 % 1012,4 hPa 0,0 l/m 2 min 0 min 22 W/m 8,4 km/h (2 Bft)
10.10.2014 08:12 12,1 C 10,6 C 97 % 1012,4 hPa 0,0 l/m 2 min 0 min 23 W/m 8,4 km/h (2 Bft)
10.10.2014 08:14 12,1 C 10,6 C 97 % 1012,4 hPa 0,0 l/m 2 min 0 min 25 W/m 8,4 km/h (2 Bft)
10.10.2014 08:16 12,1 C 10,6 C 97 % 1012,5 hPa 0,0 l/m 2 min 0 min 28 W/m 6,3 km/h (2 Bft)
10.10.2014 08:18 12,1 C 10,6 C 97 % 1012,5 hPa 0,0 l/m 2 min 0 min 31 W/m 8,4 km/h (2 Bft)
10.10.2014 08:20 12,1 C 10,6 C 97 % 1012,5 hPa 0,0 l/m 2 min 0 min 34 W/m 6,3 km/h (2 Bft)
10.10.2014 08:22 12,1 C 10,6 C 97 % 1012,6 hPa 0,0 l/m 2 min 0 min 38 W/m 10,5 km/h (2 Bft)
10.10.2014 08:24 12,1 C 10,6 C 97 % 1012,6 hPa 0,2 l/m 2 min 0 min 41 W/m 8,4 km/h (2 Bft)
10.10.2014 08:26 12,1 C 10,6 C 97 % 1012,6 hPa 0,0 l/m 2 min 0 min 42 W/m 8,4 km/h (2 Bft)
10.10.2014 08:28 12,1 C 10,6 C 97 % 1012,6 hPa 0,0 l/m 2 min 0 min 46 W/m 10,5 km/h (2 Bft)
10.10.2014 08:30 12,1 C 10,6 C 97 % 1012,6 hPa 0,0 l/m 2 min 0 min 57 W/m 10,5 km/h (2 Bft)
10.10.2014 08:32 12,1 C 10,6 C 97 % 1012,6 hPa 0,0 l/m 2 min 0 min 56 W/m 10,5 km/h (2 Bft)
10.10.2014 08:34 12,1 C 10,6 C 97 % 1012,7 hPa 0,0 l/m 2 min 0 min 52 W/m 10,5 km/h (2 Bft)
10.10.2014 08:36 12,1 C 10,6 C 97 % 1012,7 hPa 0,0 l/m 2 min 0 min 55 W/m 10,5 km/h (2 Bft)
10.10.2014 08:38 12,1 C 11,1 C 97 % 1012,7 hPa 0,0 l/m 2 min 0 min 67 W/m 10,5 km/h (2 Bft)
10.10.2014 08:40 12,1 C 11,1 C 97 % 1012,7 hPa 0,0 l/m 2 min 0 min 74 W/m 8,4 km/h (2 Bft)
10.10.2014 08:42 12,1 C 11,1 C 97 % 1012,7 hPa 0,0 l/m 2 min 0 min 86 W/m 8,4 km/h (2 Bft)
10.10.2014 08:44 12,1 C 11,1 C 97 % 1012,8 hPa 0,0 l/m 2 min 0 min 78 W/m 10,5 km/h (2 Bft)
10.10.2014 08:46 12,1 C 11,1 C 97 % 1012,9 hPa 0,0 l/m 2 min 0 min 69 W/m 8,4 km/h (2 Bft)
10.10.2014 08:48 12,2 C 11,1 C 97 % 1013,0 hPa 0,0 l/m 2 min 0 min 67 W/m 8,4 km/h (2 Bft)
10.10.2014 08:50 12,2 C 11,1 C 97 % 1013,0 hPa 0,0 l/m 2 min 0 min 69 W/m 14,6 km/h (3 Bft)
10.10.2014 08:52 12,2 C 11,7 C 97 % 1013,0 hPa 0,0 l/m 2 min 0 min 75 W/m 12,6 km/h (3 Bft)
10.10.2014 08:54 12,2 C 11,7 C 97 % 1013,0 hPa 0,0 l/m 2 min 0 min 94 W/m 8,4 km/h (2 Bft)
10.10.2014 08:56 12,3 C 11,7 C 97 % 1013,1 hPa 0,0 l/m 2 min 0 min 82 W/m 12,6 km/h (3 Bft)
10.10.2014 08:58 12,3 C 11,7 C 97 % 1013,1 hPa 0,0 l/m 2 min 0 min 72 W/m 12,6 km/h (3 Bft)
10.10.2014 09:00 12,3 C 11,7 C 97 % 1013,1 hPa 0,0 l/m 2 min 0 min 72 W/m 12,6 km/h (3 Bft)
10.10.2014 09:02 12,4 C 11,7 C 97 % 1013,1 hPa 0,0 l/m 2 min 0 min 76 W/m 12,6 km/h (3 Bft)
10.10.2014 09:04 12,4 C 11,7 C 97 % 1013,1 hPa 0,0 l/m 2 min 0 min 93 W/m 14,6 km/h (3 Bft)
10.10.2014 09:06 12,4 C 11,7 C 97 % 1013,1 hPa 0,0 l/m 2 min 0 min 129 W/m 10,5 km/h (2 Bft)
10.10.2014 09:08 12,5 C 11,7 C 97 % 1013,2 hPa 0,0 l/m 2 min 0 min 147 W/m 10,5 km/h (2 Bft)
10.10.2014 09:10 12,5 C 11,7 C 97 % 1013,2 hPa 0,0 l/m 2 min 0 min 182 W/m 16,7 km/h (3 Bft)
10.10.2014 09:12 12,6 C 12,2 C 97 % 1013,3 hPa 0,0 l/m 2 min 0 min 196 W/m 8,4 km/h (2 Bft)
10.10.2014 09:14 12,6 C 12,2 C 98 % 1013,3 hPa 0,0 l/m 2 min 0 min 165 W/m 10,5 km/h (2 Bft)
10.10.2014 09:16 12,7 C 12,2 C 98 % 1013,3 hPa 0,0 l/m 2 min 0 min 134 W/m 14,6 km/h (3 Bft)
10.10.2014 09:18 12,7 C 12,2 C 98 % 1013,3 hPa 0,0 l/m 2 min 0 min 121 W/m 10,5 km/h (2 Bft)
10.10.2014 09:20 12,7 C 12,2 C 98 % 1013,3 hPa 0,0 l/m 2 min 0 min 133 W/m 12,6 km/h (3 Bft)
10.10.2014 09:22 12,8 C 12,2 C 98 % 1013,4 hPa 0,0 l/m 2 min 0 min 142 W/m 8,4 km/h (2 Bft)
10.10.2014 09:24 12,8 C 12,2 C 98 % 1013,4 hPa 0,0 l/m 0 min 0 min 91 W/m 14,6 km/h (3 Bft)
10.10.2014 09:26 12,8 C 12,2 C 98 % 1013,5 hPa 0,0 l/m 2 min 0 min 117 W/m 10,5 km/h (2 Bft)
10.10.2014 09:28 12,9 C 12,2 C 98 % 1013,5 hPa 0,0 l/m 2 min 0 min 126 W/m 10,5 km/h (2 Bft)
10.10.2014 09:30 12,9 C 12,2 C 98 % 1013,5 hPa 0,0 l/m 2 min 0 min 141 W/m 8,4 km/h (2 Bft)
10.10.2014 09:32 12,9 C 12,2 C 98 % 1013,6 hPa 0,0 l/m 2 min 0 min 124 W/m 10,5 km/h (2 Bft)
10.10.2014 09:34 13,0 C 12,2 C 98 % 1013,6 hPa 0,0 l/m 2 min 0 min 156 W/m 14,6 km/h (3 Bft)
10.10.2014 09:36 13,0 C 12,2 C 98 % 1013,5 hPa 0,0 l/m 2 min 0 min 142 W/m 10,5 km/h (2 Bft)
10.10.2014 09:38 13,1 C 12,2 C 98 % 1013,6 hPa 0,0 l/m 2 min 0 min 182 W/m 12,6 km/h (3 Bft)
10.10.2014 09:40 13,1 C 12,8 C 98 % 1013,6 hPa 0,0 l/m 2 min 0 min 255 W/m 10,5 km/h (2 Bft)
10.10.2014 09:42 13,2 C 12,8 C 98 % 1013,6 hPa 0,0 l/m 2 min 0 min 262 W/m 12,6 km/h (3 Bft)
10.10.2014 09:44 13,2 C 12,8 C 98 % 1013,6 hPa 0,0 l/m 2 min 0 min 310 W/m 14,6 km/h (3 Bft)
10.10.2014 09:46 13,3 C 12,8 C 98 % 1013,6 hPa 0,0 l/m 2 min 0 min 334 W/m 14,6 km/h (3 Bft)
10.10.2014 09:48 13,4 C 13,3 C 98 % 1013,7 hPa 0,0 l/m 2 min 0 min 328 W/m 14,6 km/h (3 Bft)
10.10.2014 09:50 13,4 C 12,8 C 98 % 1013,7 hPa 0,0 l/m 2 min 0 min 278 W/m 23,0 km/h (4 Bft)
10.10.2014 09:52 13,5 C 13,3 C 98 % 1013,8 hPa 0,0 l/m 2 min 0 min 295 W/m 18,8 km/h (3 Bft)
10.10.2014 09:54 13,6 C 12,8 C 98 % 1013,8 hPa 0,0 l/m 2 min 0 min 308 W/m 12,6 km/h (3 Bft)
10.10.2014 09:56 13,6 C 13,3 C 98 % 1013,8 hPa 0,0 l/m 2 min 0 min 260 W/m 20,9 km/h (4 Bft)
10.10.2014 09:58 13,7 C 13,3 C 98 % 1013,9 hPa 0,0 l/m 2 min 0 min 222 W/m 16,7 km/h (3 Bft)
10.10.2014 10:00 13,7 C 12,8 C 98 % 1014,0 hPa 0,0 l/m 2 min 0 min 193 W/m 23,0 km/h (4 Bft)
10.10.2014 10:02 13,8 C 12,8 C 98 % 1014,0 hPa 0,0 l/m 2 min 0 min 163 W/m 20,9 km/h (4 Bft)
10.10.2014 10:04 13,8 C 12,8 C 98 % 1013,9 hPa 0,0 l/m 2 min 0 min 174 W/m 27,2 km/h (4 Bft)
10.10.2014 10:06 13,8 C 12,8 C 98 % 1013,9 hPa 0,0 l/m 2 min 0 min 197 W/m 20,9 km/h (4 Bft)
10.10.2014 10:08 13,8 C 12,8 C 98 % 1013,9 hPa 0,0 l/m 2 min 0 min 192 W/m 25,1 km/h (4 Bft)
10.10.2014 10:10 13,8 C 12,8 C 98 % 1014,0 hPa 0,0 l/m 2 min 0 min 135 W/m 23,0 km/h (4 Bft)
10.10.2014 10:12 13,8 C 12,8 C 98 % 1014,1 hPa 0,0 l/m 0 min 0 min 123 W/m 14,6 km/h (3 Bft)
10.10.2014 10:14 13,8 C 12,8 C 98 % 1014,0 hPa 0,0 l/m 2 min 0 min 143 W/m 23,0 km/h (4 Bft)
10.10.2014 10:16 13,8 C 12,8 C 98 % 1014,1 hPa 0,0 l/m 0 min 0 min 134 W/m 20,9 km/h (4 Bft)
10.10.2014 10:18 13,8 C 12,8 C 97 % 1014,2 hPa 0,0 l/m 0 min 0 min 128 W/m 16,7 km/h (3 Bft)
10.10.2014 10:20 13,8 C 12,8 C 97 % 1014,3 hPa 0,0 l/m 0 min 0 min 130 W/m 14,6 km/h (3 Bft)
10.10.2014 10:22 13,8 C 12,8 C 97 % 1014,3 hPa 0,0 l/m 0 min 0 min 136 W/m 16,7 km/h (3 Bft)
10.10.2014 10:24 13,8 C 12,8 C 97 % 1014,3 hPa 0,0 l/m 0 min 0 min 139 W/m 14,6 km/h (3 Bft)
10.10.2014 10:26 13,8 C 12,8 C 96 % 1014,3 hPa 0,0 l/m 2 min 0 min 155 W/m 16,7 km/h (3 Bft)
10.10.2014 10:28 13,9 C 12,8 C 96 % 1014,3 hPa 0,0 l/m 2 min 0 min 173 W/m 16,7 km/h (3 Bft)
10.10.2014 10:30 13,9 C 12,8 C 96 % 1014,4 hPa 0,0 l/m 2 min 0 min 185 W/m 12,6 km/h (3 Bft)
10.10.2014 10:32 13,9 C 12,8 C 96 % 1014,4 hPa 0,0 l/m 2 min 0 min 182 W/m 14,6 km/h (3 Bft)
10.10.2014 10:34 14,0 C 12,8 C 96 % 1014,4 hPa 0,0 l/m 2 min 0 min 173 W/m 10,5 km/h (2 Bft)
10.10.2014 10:36 14,1 C 12,8 C 95 % 1014,4 hPa 0,0 l/m 2 min 0 min 170 W/m 12,6 km/h (3 Bft)
10.10.2014 10:38 14,1 C 12,8 C 95 % 1014,4 hPa 0,0 l/m 2 min 0 min 164 W/m 14,6 km/h (3 Bft)
10.10.2014 10:40 14,2 C 12,8 C 95 % 1014,4 hPa 0,0 l/m 2 min 0 min 170 W/m 27,2 km/h (4 Bft)
10.10.2014 10:42 14,2 C 12,8 C 94 % 1014,4 hPa 0,0 l/m 2 min 0 min 175 W/m 12,6 km/h (3 Bft)
10.10.2014 10:44 14,2 C 12,8 C 94 % 1014,5 hPa 0,0 l/m 2 min 0 min 164 W/m 10,5 km/h (2 Bft)
10.10.2014 10:46 14,2 C 12,8 C 94 % 1014,5 hPa 0,0 l/m 2 min 0 min 184 W/m 10,5 km/h (2 Bft)
10.10.2014 10:48 14,2 C 12,8 C 93 % 1014,5 hPa 0,0 l/m 2 min 0 min 209 W/m 14,6 km/h (3 Bft)
10.10.2014 10:50 14,2 C 13,3 C 93 % 1014,5 hPa 0,0 l/m 2 min 0 min 375 W/m 18,8 km/h (3 Bft)
10.10.2014 10:52 14,2 C 13,3 C 93 % 1014,5 hPa 0,0 l/m 2 min 0 min 424 W/m 14,6 km/h (3 Bft)
10.10.2014 10:54 14,3 C 13,3 C 93 % 1014,6 hPa 0,0 l/m 2 min 0 min 428 W/m 14,6 km/h (3 Bft)
10.10.2014 10:56 14,4 C 13,3 C 92 % 1014,6 hPa 0,0 l/m 2 min 0 min 443 W/m 25,1 km/h (4 Bft)
10.10.2014 10:58 14,6 C 13,9 C 92 % 1014,6 hPa 0,0 l/m 2 min 0 min 446 W/m 16,7 km/h (3 Bft)
10.10.2014 11:00 14,7 C 13,9 C 91 % 1014,7 hPa 0,0 l/m 2 min 0 min 417 W/m 23,0 km/h (4 Bft)
10.10.2014 11:02 14,8 C 13,9 C 91 % 1014,7 hPa 0,0 l/m 2 min 0 min 359 W/m 18,8 km/h (3 Bft)
10.10.2014 11:04 14,9 C 13,9 C 90 % 1014,7 hPa 0,0 l/m 2 min 0 min 393 W/m 20,9 km/h (4 Bft)
10.10.2014 11:06 15,1 C 13,9 C 89 % 1014,7 hPa 0,0 l/m 2 min 0 min 396 W/m 23,0 km/h (4 Bft)
10.10.2014 11:08 15,2 C 13,9 C 88 % 1014,7 hPa 0,0 l/m 2 min 0 min 330 W/m 27,2 km/h (4 Bft)
10.10.2014 11:10 15,2 C 13,9 C 88 % 1014,6 hPa 0,0 l/m 2 min 0 min 351 W/m 20,9 km/h (4 Bft)
10.10.2014 11:12 15,3 C 13,9 C 87 % 1014,7 hPa 0,0 l/m 2 min 0 min 396 W/m 18,8 km/h (3 Bft)
10.10.2014 11:14 15,4 C 13,9 C 86 % 1014,7 hPa 0,0 l/m 2 min 0 min 460 W/m 18,8 km/h (3 Bft)
10.10.2014 11:16 15,5 C 13,9 C 85 % 1014,6 hPa 0,0 l/m 2 min 0 min 458 W/m 16,7 km/h (3 Bft)
10.10.2014 11:18 15,6 C 13,9 C 85 % 1014,6 hPa 0,0 l/m 2 min 0 min 434 W/m 23,0 km/h (4 Bft)
10.10.2014 11:20 15,7 C 13,9 C 84 % 1014,6 hPa 0,0 l/m 2 min 0 min 464 W/m 20,9 km/h (4 Bft)
10.10.2014 11:22 15,8 C 13,9 C 84 % 1014,5 hPa 0,0 l/m 2 min 0 min 468 W/m 18,8 km/h (3 Bft)
10.10.2014 11:24 15,9 C 13,9 C 83 % 1014,6 hPa 0,0 l/m 2 min 0 min 471 W/m 29,3 km/h (5 Bft)
10.10.2014 11:26 16,0 C 13,9 C 82 % 1014,6 hPa 0,0 l/m 2 min 0 min 465 W/m 18,8 km/h (3 Bft)
10.10.2014 11:28 16,1 C 13,9 C 81 % 1014,6 hPa 0,0 l/m 2 min 0 min 477 W/m 27,2 km/h (4 Bft)
10.10.2014 11:30 16,2 C 13,9 C 80 % 1014,6 hPa 0,0 l/m 2 min 0 min 482 W/m 27,2 km/h (4 Bft)
10.10.2014 11:32 16,2 C 13,9 C 80 % 1014,6 hPa 0,0 l/m 2 min 0 min 485 W/m 25,1 km/h (4 Bft)
10.10.2014 11:34 16,3 C 13,9 C 79 % 1014,6 hPa 0,0 l/m 2 min 0 min 477 W/m 20,9 km/h (4 Bft)
10.10.2014 11:36 16,4 C 14,4 C 79 % 1014,7 hPa 0,0 l/m 2 min 0 min 482 W/m 16,7 km/h (3 Bft)
10.10.2014 11:38 16,4 C 13,9 C 78 % 1014,6 hPa 0,0 l/m 2 min 0 min 448 W/m 25,1 km/h (4 Bft)
10.10.2014 11:40 16,5 C 14,4 C 78 % 1014,6 hPa 0,0 l/m 2 min 0 min 385 W/m 20,9 km/h (4 Bft)
10.10.2014 11:42 16,6 C 14,4 C 78 % 1014,6 hPa 0,0 l/m 2 min 0 min 491 W/m 14,6 km/h (3 Bft)
10.10.2014 11:44 16,7 C 14,4 C 77 % 1014,6 hPa 0,0 l/m 2 min 0 min 489 W/m 31,4 km/h (5 Bft)
10.10.2014 11:46 16,7 C 14,4 C 78 % 1014,6 hPa 0,0 l/m 2 min 0 min 499 W/m 23,0 km/h (4 Bft)
10.10.2014 11:48 16,8 C 14,4 C 77 % 1014,7 hPa 0,0 l/m 2 min 0 min 416 W/m 18,8 km/h (3 Bft)
10.10.2014 11:50 16,8 C 14,4 C 77 % 1014,7 hPa 0,0 l/m 2 min 0 min 218 W/m 18,8 km/h (3 Bft)
10.10.2014 11:52 16,8 C 14,4 C 77 % 1014,6 hPa 0,0 l/m 2 min 0 min 376 W/m 20,9 km/h (4 Bft)
10.10.2014 11:54 16,8 C 14,4 C 77 % 1014,6 hPa 0,0 l/m 2 min 0 min 442 W/m 20,9 km/h (4 Bft)
10.10.2014 11:56 16,8 C 14,4 C 77 % 1014,6 hPa 0,0 l/m 2 min 0 min 386 W/m 12,6 km/h (3 Bft)
10.10.2014 11:58 16,9 C 14,4 C 77 % 1014,6 hPa 0,0 l/m 2 min 0 min 442 W/m 12,6 km/h (3 Bft)
10.10.2014 12:00 16,9 C 14,4 C 78 % 1014,7 hPa 0,0 l/m 2 min 0 min 474 W/m 18,8 km/h (3 Bft)
10.10.2014 12:02 16,9 C 14,4 C 77 % 1014,7 hPa 0,0 l/m 2 min 0 min 490 W/m 23,0 km/h (4 Bft)
10.10.2014 12:05 17,0 C 14,4 C 77 % 1014,8 hPa 0,0 l/m 2 min 0 min 520 W/m 14,6 km/h (3 Bft)
10.10.2014 12:08 17,1 C 15,0 C 76 % 1014,8 hPa 0,0 l/m 2 min 0 min 514 W/m 27,2 km/h (4 Bft)
10.10.2014 12:10 17,1 C 15,0 C 76 % 1014,8 hPa 0,0 l/m 2 min 0 min 509 W/m 23,0 km/h (4 Bft)
10.10.2014 12:12 17,2 C 15,0 C 76 % 1014,8 hPa 0,0 l/m 2 min 0 min 510 W/m 18,8 km/h (3 Bft)
10.10.2014 12:14 17,2 C 15,0 C 76 % 1014,8 hPa 0,0 l/m 2 min 0 min 506 W/m 18,8 km/h (3 Bft)
10.10.2014 12:16 17,3 C 15,0 C 76 % 1014,9 hPa 0,0 l/m 2 min 0 min 518 W/m 23,0 km/h (4 Bft)
10.10.2014 12:18 17,3 C 15,0 C 75 % 1014,8 hPa 0,0 l/m 2 min 0 min 524 W/m 33,5 km/h (5 Bft)
10.10.2014 12:20 17,3 C 15,0 C 75 % 1014,8 hPa 0,0 l/m 2 min 0 min 528 W/m 18,8 km/h (3 Bft)
10.10.2014 12:22 17,3 C 15,0 C 75 % 1014,8 hPa 0,0 l/m 2 min 0 min 531 W/m 20,9 km/h (4 Bft)
10.10.2014 12:24 17,4 C 15,0 C 75 % 1014,8 hPa 0,0 l/m 2 min 0 min 544 W/m 16,7 km/h (3 Bft)
10.10.2014 12:26 17,4 C 15,0 C 76 % 1014,8 hPa 0,0 l/m 2 min 0 min 549 W/m 23,0 km/h (4 Bft)
10.10.2014 12:28 17,5 C 15,6 C 77 % 1014,8 hPa 0,0 l/m 2 min 0 min 551 W/m 16,7 km/h (3 Bft)
10.10.2014 12:30 17,6 C 15,6 C 76 % 1014,8 hPa 0,0 l/m 2 min 0 min 552 W/m 20,9 km/h (4 Bft)
10.10.2014 12:32 17,6 C 15,6 C 76 % 1014,7 hPa 0,0 l/m 2 min 0 min 555 W/m 20,9 km/h (4 Bft)
10.10.2014 12:34 17,7 C 15,6 C 75 % 1014,8 hPa 0,0 l/m 2 min 0 min 578 W/m 20,9 km/h (4 Bft)
10.10.2014 12:36 17,7 C 15,6 C 75 % 1014,8 hPa 0,0 l/m 2 min 0 min 602 W/m 20,9 km/h (4 Bft)
10.10.2014 12:38 17,8 C 15,6 C 75 % 1014,8 hPa 0,0 l/m 2 min 0 min 582 W/m 16,7 km/h (3 Bft)
10.10.2014 12:40 17,9 C 15,6 C 75 % 1014,8 hPa 0,0 l/m 2 min 0 min 606 W/m 20,9 km/h (4 Bft)
10.10.2014 12:42 18,0 C 15,6 C 75 % 1014,8 hPa 0,0 l/m 2 min 0 min 552 W/m 16,7 km/h (3 Bft)
10.10.2014 12:44 18,1 C 15,6 C 75 % 1014,8 hPa 0,0 l/m 2 min 0 min 506 W/m 14,6 km/h (3 Bft)
10.10.2014 12:46 18,1 C 16,1 C 74 % 1014,8 hPa 0,0 l/m 2 min 0 min 503 W/m 12,6 km/h (3 Bft)
10.10.2014 12:48 18,2 C 16,1 C 74 % 1014,7 hPa 0,0 l/m 2 min 0 min 583 W/m 18,8 km/h (3 Bft)
10.10.2014 12:50 18,2 C 16,1 C 73 % 1014,7 hPa 0,0 l/m 2 min 0 min 550 W/m 23,0 km/h (4 Bft)
10.10.2014 12:52 18,2 C 16,1 C 72 % 1014,7 hPa 0,0 l/m 2 min 0 min 592 W/m 23,0 km/h (4 Bft)
10.10.2014 12:54 18,3 C 16,1 C 72 % 1014,7 hPa 0,0 l/m 2 min 0 min 595 W/m 25,1 km/h (4 Bft)
10.10.2014 12:56 18,3 C 16,1 C 72 % 1014,7 hPa 0,0 l/m 2 min 0 min 598 W/m 18,8 km/h (3 Bft)
10.10.2014 12:58 18,4 C 16,1 C 73 % 1014,7 hPa 0,0 l/m 2 min 0 min 507 W/m 14,6 km/h (3 Bft)
10.10.2014 13:00 18,4 C 15,6 C 72 % 1014,8 hPa 0,0 l/m 2 min 0 min 282 W/m 20,9 km/h (4 Bft)
10.10.2014 13:02 18,4 C 15,6 C 71 % 1014,8 hPa 0,0 l/m 2 min 0 min 255 W/m 18,8 km/h (3 Bft)
10.10.2014 13:04 18,4 C 15,6 C 71 % 1014,7 hPa 0,0 l/m 2 min 0 min 512 W/m 14,6 km/h (3 Bft)
10.10.2014 13:06 18,4 C 15,6 C 71 % 1014,8 hPa 0,0 l/m 2 min 0 min 391 W/m 14,6 km/h (3 Bft)
10.10.2014 13:08 18,4 C 15,6 C 71 % 1014,8 hPa 0,0 l/m 2 min 0 min 534 W/m 14,6 km/h (3 Bft)
10.10.2014 13:10 18,5 C 15,6 C 71 % 1014,7 hPa 0,0 l/m 2 min 0 min 623 W/m 12,6 km/h (3 Bft)
10.10.2014 13:12 18,5 C 15,6 C 71 % 1014,7 hPa 0,0 l/m 2 min 0 min 527 W/m 20,9 km/h (4 Bft)
10.10.2014 13:14 18,5 C 15,6 C 70 % 1014,7 hPa 0,0 l/m 2 min 0 min 490 W/m 16,7 km/h (3 Bft)
10.10.2014 13:16 18,5 C 15,6 C 71 % 1014,8 hPa 0,0 l/m 2 min 0 min 560 W/m 12,6 km/h (3 Bft)
10.10.2014 13:18 18,6 C 16,1 C 71 % 1014,8 hPa 0,0 l/m 2 min 0 min 567 W/m 20,9 km/h (4 Bft)
10.10.2014 13:20 18,6 C 16,1 C 70 % 1014,8 hPa 0,0 l/m 2 min 0 min 537 W/m 20,9 km/h (4 Bft)
10.10.2014 13:22 18,6 C 16,1 C 70 % 1014,8 hPa 0,0 l/m 2 min 0 min 571 W/m 18,8 km/h (3 Bft)
10.10.2014 13:24 18,6 C 16,1 C 71 % 1014,9 hPa 0,0 l/m 2 min 0 min 553 W/m 10,5 km/h (2 Bft)
10.10.2014 13:26 18,7 C 16,1 C 70 % 1014,9 hPa 0,0 l/m 2 min 0 min 606 W/m 23,0 km/h (4 Bft)
10.10.2014 13:28 18,7 C 16,1 C 69 % 1014,9 hPa 0,0 l/m 2 min 0 min 606 W/m 16,7 km/h (3 Bft)
10.10.2014 13:30 18,7 C 16,1 C 69 % 1014,9 hPa 0,0 l/m 2 min 0 min 621 W/m 16,7 km/h (3 Bft)
10.10.2014 13:32 18,8 C 16,7 C 69 % 1014,9 hPa 0,0 l/m 2 min 0 min 641 W/m 18,8 km/h (3 Bft)
10.10.2014 13:34 18,9 C 16,7 C 70 % 1014,9 hPa 0,0 l/m 2 min 0 min 652 W/m 18,8 km/h (3 Bft)
10.10.2014 13:36 18,9 C 16,7 C 69 % 1014,9 hPa 0,0 l/m 2 min 0 min 649 W/m 18,8 km/h (3 Bft)
10.10.2014 13:38 19,0 C 16,7 C 68 % 1014,8 hPa 0,0 l/m 2 min 0 min 599 W/m 23,0 km/h (4 Bft)
10.10.2014 13:40 19,1 C 16,7 C 69 % 1014,8 hPa 0,0 l/m 2 min 0 min 608 W/m 14,6 km/h (3 Bft)
10.10.2014 13:42 19,2 C 16,7 C 69 % 1014,8 hPa 0,0 l/m 2 min 0 min 666 W/m 10,5 km/h (2 Bft)
10.10.2014 13:44 19,2 C 17,2 C 69 % 1014,8 hPa 0,0 l/m 2 min 0 min 669 W/m 16,7 km/h (3 Bft)
10.10.2014 13:46 19,3 C 17,2 C 69 % 1014,8 hPa 0,0 l/m 2 min 0 min 574 W/m 8,4 km/h (2 Bft)
10.10.2014 13:48 19,4 C 17,2 C 69 % 1014,8 hPa 0,0 l/m 2 min 0 min 618 W/m 14,6 km/h (3 Bft)
10.10.2014 13:50 19,5 C 17,2 C 68 % 1014,8 hPa 0,0 l/m 2 min 0 min 556 W/m 18,8 km/h (3 Bft)
10.10.2014 13:52 19,6 C 16,7 C 68 % 1014,7 hPa 0,0 l/m 2 min 0 min 428 W/m 12,6 km/h (3 Bft)
10.10.2014 13:54 19,6 C 16,7 C 67 % 1014,8 hPa 0,0 l/m 2 min 0 min 454 W/m 12,6 km/h (3 Bft)
10.10.2014 13:56 19,6 C 16,7 C 67 % 1014,8 hPa 0,0 l/m 2 min 0 min 410 W/m 16,7 km/h (3 Bft)
10.10.2014 13:58 19,7 C 16,7 C 66 % 1014,9 hPa 0,0 l/m 2 min 0 min 385 W/m 18,8 km/h (3 Bft)
10.10.2014 14:00 19,6 C 16,7 C 64 % 1014,8 hPa 0,0 l/m 2 min 0 min 408 W/m 20,9 km/h (4 Bft)
10.10.2014 14:02 19,6 C 16,7 C 65 % 1014,9 hPa 0,0 l/m 2 min 0 min 516 W/m 20,9 km/h (4 Bft)
10.10.2014 14:04 19,6 C 16,7 C 64 % 1014,8 hPa 0,0 l/m 2 min 0 min 529 W/m 16,7 km/h (3 Bft)
10.10.2014 14:06 19,6 C 16,7 C 65 % 1014,8 hPa 0,0 l/m 2 min 0 min 379 W/m 20,9 km/h (4 Bft)
10.10.2014 14:08 19,6 C 16,7 C 65 % 1014,8 hPa 0,0 l/m 2 min 0 min 463 W/m 20,9 km/h (4 Bft)
10.10.2014 14:10 19,6 C 16,7 C 65 % 1014,8 hPa 0,0 l/m 2 min 0 min 543 W/m 10,5 km/h (2 Bft)
10.10.2014 14:12 19,6 C 17,2 C 66 % 1014,8 hPa 0,0 l/m 2 min 0 min 484 W/m 14,6 km/h (3 Bft)
10.10.2014 14:14 19,6 C 17,2 C 66 % 1014,8 hPa 0,0 l/m 2 min 0 min 506 W/m 10,5 km/h (2 Bft)
10.10.2014 14:16 19,6 C 17,2 C 64 % 1014,8 hPa 0,0 l/m 2 min 0 min 510 W/m 18,8 km/h (3 Bft)
10.10.2014 14:18 19,7 C 16,7 C 64 % 1014,8 hPa 0,0 l/m 2 min 0 min 503 W/m 23,0 km/h (4 Bft)
10.10.2014 14:20 19,7 C 16,7 C 64 % 1014,8 hPa 0,0 l/m 2 min 0 min 491 W/m 27,2 km/h (4 Bft)
10.10.2014 14:22 19,6 C 16,7 C 64 % 1014,8 hPa 0,0 l/m 2 min 0 min 489 W/m 18,8 km/h (3 Bft)
10.10.2014 14:24 19,6 C 16,7 C 64 % 1014,8 hPa 0,0 l/m 2 min 0 min 465 W/m 12,6 km/h (3 Bft)
10.10.2014 14:26 19,6 C 16,7 C 65 % 1014,7 hPa 0,0 l/m 2 min 0 min 463 W/m 14,6 km/h (3 Bft)
10.10.2014 14:28 19,7 C 16,7 C 66 % 1014,7 hPa 0,0 l/m 2 min 0 min 528 W/m 10,5 km/h (2 Bft)
10.10.2014 14:30 19,7 C 17,2 C 65 % 1014,7 hPa 0,0 l/m 2 min 0 min 501 W/m 20,9 km/h (4 Bft)
10.10.2014 14:32 19,7 C 16,7 C 64 % 1014,7 hPa 0,0 l/m 2 min 0 min 556 W/m 23,0 km/h (4 Bft)
10.10.2014 14:34 19,7 C 16,7 C 64 % 1014,7 hPa 0,0 l/m 2 min 0 min 456 W/m 20,9 km/h (4 Bft)
10.10.2014 14:36 19,7 C 16,7 C 64 % 1014,7 hPa 0,0 l/m 2 min 0 min 366 W/m 14,6 km/h (3 Bft)
10.10.2014 14:38 19,7 C 16,7 C 64 % 1014,7 hPa 0,0 l/m 2 min 0 min 479 W/m 10,5 km/h (2 Bft)
10.10.2014 14:40 19,7 C 16,7 C 65 % 1014,7 hPa 0,0 l/m 2 min 0 min 430 W/m 10,5 km/h (2 Bft)
10.10.2014 14:42 19,7 C 17,2 C 66 % 1014,8 hPa 0,0 l/m 2 min 0 min 381 W/m 16,7 km/h (3 Bft)
10.10.2014 14:44 19,7 C 16,7 C 63 % 1014,8 hPa 0,0 l/m 2 min 0 min 454 W/m 14,6 km/h (3 Bft)
10.10.2014 14:46 19,6 C 16,7 C 64 % 1014,8 hPa 0,0 l/m 2 min 0 min 426 W/m 16,7 km/h (3 Bft)
10.10.2014 14:48 19,6 C 16,7 C 64 % 1014,8 hPa 0,0 l/m 2 min 0 min 369 W/m 16,7 km/h (3 Bft)
10.10.2014 14:50 19,6 C 16,7 C 64 % 1014,8 hPa 0,0 l/m 2 min 0 min 313 W/m 14,6 km/h (3 Bft)
10.10.2014 14:52 19,6 C 16,7 C 64 % 1014,9 hPa 0,0 l/m 2 min 0 min 330 W/m 16,7 km/h (3 Bft)
10.10.2014 14:54 19,5 C 16,7 C 64 % 1014,9 hPa 0,0 l/m 2 min 0 min 363 W/m 10,5 km/h (2 Bft)
10.10.2014 14:56 19,5 C 16,7 C 64 % 1014,9 hPa 0,0 l/m 2 min 0 min 323 W/m 16,7 km/h (3 Bft)
10.10.2014 14:58 19,4 C 16,7 C 65 % 1014,9 hPa 0,0 l/m 2 min 0 min 284 W/m 14,6 km/h (3 Bft)
10.10.2014 15:00 19,4 C 16,7 C 65 % 1014,9 hPa 0,0 l/m 2 min 0 min 371 W/m 14,6 km/h (3 Bft)
10.10.2014 15:02 19,4 C 16,7 C 65 % 1014,9 hPa 0,0 l/m 2 min 0 min 425 W/m 8,4 km/h (2 Bft)
10.10.2014 15:04 19,4 C 16,7 C 66 % 1014,9 hPa 0,0 l/m 2 min 0 min 413 W/m 16,7 km/h (3 Bft)
10.10.2014 15:06 19,4 C 16,7 C 64 % 1014,9 hPa 0,0 l/m 2 min 0 min 440 W/m 16,7 km/h (3 Bft)
10.10.2014 15:08 19,4 C 16,7 C 64 % 1015,0 hPa 0,0 l/m 2 min 0 min 473 W/m 14,6 km/h (3 Bft)
10.10.2014 15:10 19,4 C 16,7 C 63 % 1014,9 hPa 0,0 l/m 2 min 0 min 455 W/m 18,8 km/h (3 Bft)
10.10.2014 15:12 19,4 C 16,7 C 64 % 1014,9 hPa 0,0 l/m 2 min 0 min 379 W/m 18,8 km/h (3 Bft)
10.10.2014 15:14 19,4 C 16,7 C 64 % 1014,8 hPa 0,0 l/m 2 min 0 min 401 W/m 12,6 km/h (3 Bft)
10.10.2014 15:16 19,4 C 16,7 C 64 % 1014,9 hPa 0,0 l/m 2 min 0 min 371 W/m 14,6 km/h (3 Bft)
10.10.2014 15:18 19,4 C 16,7 C 64 % 1014,9 hPa 0,0 l/m 2 min 0 min 290 W/m 16,7 km/h (3 Bft)
10.10.2014 15:20 19,4 C 16,7 C 63 % 1014,9 hPa 0,0 l/m 2 min 0 min 220 W/m 16,7 km/h (3 Bft)
10.10.2014 15:22 19,4 C 16,7 C 63 % 1015,0 hPa 0,0 l/m 2 min 0 min 320 W/m 16,7 km/h (3 Bft)
10.10.2014 15:24 19,4 C 16,7 C 64 % 1014,9 hPa 0,0 l/m 2 min 0 min 450 W/m 8,4 km/h (2 Bft)
10.10.2014 15:26 19,4 C 16,7 C 64 % 1014,9 hPa 0,0 l/m 2 min 0 min 386 W/m 8,4 km/h (2 Bft)
10.10.2014 15:28 19,4 C 16,7 C 64 % 1014,9 hPa 0,0 l/m 2 min 0 min 408 W/m 10,5 km/h (2 Bft)
10.10.2014 15:30 19,4 C 16,7 C 64 % 1014,9 hPa 0,0 l/m 2 min 0 min 411 W/m 8,4 km/h (2 Bft)
10.10.2014 15:32 19,4 C 16,7 C 66 % 1014,9 hPa 0,0 l/m 2 min 0 min 442 W/m 6,3 km/h (2 Bft)
10.10.2014 15:34 19,5 C 16,7 C 65 % 1014,9 hPa 0,0 l/m 2 min 0 min 375 W/m 6,3 km/h (2 Bft)
10.10.2014 15:36 19,6 C 16,7 C 65 % 1015,0 hPa 0,0 l/m 2 min 0 min 371 W/m 12,6 km/h (3 Bft)
10.10.2014 15:38 19,6 C 16,7 C 64 % 1015,0 hPa 0,0 l/m 2 min 0 min 206 W/m 16,7 km/h (3 Bft)
10.10.2014 15:40 19,6 C 16,7 C 63 % 1014,9 hPa 0,0 l/m 2 min 0 min 457 W/m 12,6 km/h (3 Bft)
10.10.2014 15:42 19,6 C 16,7 C 64 % 1014,9 hPa 0,0 l/m 2 min 0 min 384 W/m 16,7 km/h (3 Bft)
10.10.2014 15:44 19,7 C 16,7 C 64 % 1014,9 hPa 0,0 l/m 2 min 0 min 352 W/m 8,4 km/h (2 Bft)
10.10.2014 15:46 19,7 C 16,7 C 63 % 1014,9 hPa 0,0 l/m 2 min 0 min 329 W/m 18,8 km/h (3 Bft)
10.10.2014 15:48 19,7 C 16,7 C 63 % 1015,0 hPa 0,0 l/m 2 min 0 min 259 W/m 18,8 km/h (3 Bft)
10.10.2014 15:50 19,7 C 16,7 C 63 % 1015,0 hPa 0,0 l/m 2 min 0 min 287 W/m 14,6 km/h (3 Bft)
10.10.2014 15:52 19,7 C 16,7 C 63 % 1014,9 hPa 0,0 l/m 2 min 0 min 252 W/m 12,6 km/h (3 Bft)
10.10.2014 15:54 19,7 C 16,7 C 62 % 1014,9 hPa 0,0 l/m 2 min 0 min 213 W/m 14,6 km/h (3 Bft)
10.10.2014 15:56 19,7 C 16,7 C 62 % 1014,9 hPa 0,0 l/m 2 min 0 min 276 W/m 12,6 km/h (3 Bft)
10.10.2014 15:58 19,6 C 16,1 C 62 % 1014,9 hPa 0,0 l/m 2 min 0 min 306 W/m 10,5 km/h (2 Bft)
10.10.2014 16:00 19,6 C 16,1 C 63 % 1014,9 hPa 0,0 l/m 2 min 0 min 214 W/m 6,3 km/h (2 Bft)
10.10.2014 16:02 19,6 C 16,1 C 64 % 1014,9 hPa 0,0 l/m 2 min 0 min 193 W/m 10,5 km/h (2 Bft)
10.10.2014 16:04 19,6 C 16,1 C 64 % 1014,9 hPa 0,0 l/m 2 min 0 min 193 W/m 8,4 km/h (2 Bft)
10.10.2014 16:06 19,5 C 16,1 C 63 % 1014,9 hPa 0,0 l/m 2 min 0 min 189 W/m 16,7 km/h (3 Bft)
10.10.2014 16:08 19,4 C 16,1 C 62 % 1014,9 hPa 0,0 l/m 2 min 0 min 177 W/m 16,7 km/h (3 Bft)
10.10.2014 16:10 19,3 C 16,1 C 63 % 1014,8 hPa 0,0 l/m 2 min 0 min 176 W/m 16,7 km/h (3 Bft)
10.10.2014 16:12 19,3 C 16,1 C 64 % 1014,8 hPa 0,0 l/m 2 min 0 min 181 W/m 12,6 km/h (3 Bft)
10.10.2014 16:14 19,2 C 16,1 C 64 % 1014,8 hPa 0,0 l/m 2 min 0 min 198 W/m 14,6 km/h (3 Bft)
10.10.2014 16:16 19,2 C 16,1 C 64 % 1014,8 hPa 0,0 l/m 2 min 0 min 206 W/m 14,6 km/h (3 Bft)
10.10.2014 16:18 19,1 C 16,1 C 64 % 1014,8 hPa 0,0 l/m 2 min 0 min 199 W/m 12,6 km/h (3 Bft)
10.10.2014 16:20 19,0 C 16,1 C 63 % 1014,8 hPa 0,0 l/m 2 min 0 min 185 W/m 14,6 km/h (3 Bft)
10.10.2014 16:22 18,9 C 16,1 C 64 % 1014,8 hPa 0,0 l/m 2 min 0 min 190 W/m 14,6 km/h (3 Bft)
10.10.2014 16:24 18,9 C 16,1 C 65 % 1014,7 hPa 0,0 l/m 2 min 0 min 211 W/m 4,2 km/h (1 Bft)
10.10.2014 16:26 18,9 C 16,1 C 66 % 1014,7 hPa 0,0 l/m 2 min 0 min 191 W/m 6,3 km/h (2 Bft)
10.10.2014 16:28 18,8 C 16,1 C 66 % 1014,6 hPa 0,0 l/m 2 min 0 min 184 W/m 12,6 km/h (3 Bft)
10.10.2014 16:30 18,8 C 16,1 C 65 % 1014,6 hPa 0,0 l/m 2 min 0 min 184 W/m 10,5 km/h (2 Bft)
10.10.2014 16:32 18,8 C 16,1 C 65 % 1014,7 hPa 0,0 l/m 2 min 0 min 225 W/m 10,5 km/h (2 Bft)
10.10.2014 16:34 18,7 C 16,1 C 66 % 1014,7 hPa 0,0 l/m 2 min 0 min 169 W/m 6,3 km/h (2 Bft)
10.10.2014 16:36 18,7 C 16,1 C 66 % 1014,7 hPa 0,0 l/m 2 min 0 min 143 W/m 6,3 km/h (2 Bft)
10.10.2014 16:38 18,7 C 16,1 C 66 % 1014,7 hPa 0,0 l/m 2 min 0 min 140 W/m 8,4 km/h (2 Bft)
10.10.2014 16:40 18,7 C 16,1 C 67 % 1014,7 hPa 0,0 l/m 2 min 0 min 130 W/m 8,4 km/h (2 Bft)
10.10.2014 16:42 18,7 C 15,6 C 67 % 1014,7 hPa 0,0 l/m 2 min 0 min 131 W/m 10,5 km/h (2 Bft)
10.10.2014 16:44 18,6 C 15,6 C 66 % 1014,7 hPa 0,0 l/m 2 min 0 min 154 W/m 10,5 km/h (2 Bft)
10.10.2014 16:46 18,6 C 16,1 C 66 % 1014,7 hPa 0,0 l/m 2 min 0 min 173 W/m 10,5 km/h (2 Bft)
10.10.2014 16:48 18,6 C 16,1 C 66 % 1014,7 hPa 0,0 l/m 2 min 0 min 159 W/m 8,4 km/h (2 Bft)
10.10.2014 16:50 18,5 C 16,1 C 66 % 1014,7 hPa 0,0 l/m 2 min 0 min 151 W/m 8,4 km/h (2 Bft)
10.10.2014 16:52 18,5 C 16,1 C 66 % 1014,6 hPa 0,0 l/m 2 min 0 min 152 W/m 8,4 km/h (2 Bft)
10.10.2014 16:54 18,5 C 16,1 C 67 % 1014,7 hPa 0,0 l/m 2 min 0 min 200 W/m 6,3 km/h (2 Bft)
10.10.2014 16:56 18,5 C 16,1 C 67 % 1014,6 hPa 0,0 l/m 2 min 0 min 166 W/m 6,3 km/h (2 Bft)
10.10.2014 16:58 18,4 C 16,1 C 67 % 1014,5 hPa 0,0 l/m 2 min 0 min 133 W/m 8,4 km/h (2 Bft)
10.10.2014 17:00 18,4 C 15,6 C 67 % 1014,5 hPa 0,0 l/m 2 min 0 min 128 W/m 10,5 km/h (2 Bft)
10.10.2014 17:02 18,4 C 15,6 C 66 % 1014,5 hPa 0,0 l/m 2 min 0 min 112 W/m 10,5 km/h (2 Bft)
10.10.2014 17:04 18,4 C 15,6 C 67 % 1014,7 hPa 0,0 l/m 0 min 0 min 93 W/m 10,5 km/h (2 Bft)
10.10.2014 17:06 18,4 C 15,6 C 68 % 1014,8 hPa 0,0 l/m 0 min 0 min 88 W/m 6,3 km/h (2 Bft)
10.10.2014 17:08 18,4 C 15,6 C 68 % 1014,8 hPa 0,0 l/m 0 min 0 min 84 W/m 8,4 km/h (2 Bft)
10.10.2014 17:10 18,3 C 15,6 C 68 % 1014,8 hPa 0,0 l/m 0 min 0 min 87 W/m 6,3 km/h (2 Bft)
10.10.2014 17:12 18,3 C 15,6 C 68 % 1014,8 hPa 0,0 l/m 0 min 0 min 93 W/m 4,2 km/h (1 Bft)
10.10.2014 17:14 18,3 C 15,0 C 68 % 1014,8 hPa 0,0 l/m 2 min 0 min 98 W/m 6,3 km/h (2 Bft)
10.10.2014 17:16 18,3 C 15,0 C 69 % 1014,9 hPa 0,0 l/m 0 min 0 min 94 W/m 6,3 km/h (2 Bft)
10.10.2014 17:18 18,3 C 15,0 C 69 % 1014,8 hPa 0,0 l/m 0 min 0 min 86 W/m 8,4 km/h (2 Bft)
10.10.2014 17:20 18,2 C 15,6 C 68 % 1014,7 hPa 0,0 l/m 0 min 0 min 90 W/m 6,3 km/h (2 Bft)
10.10.2014 17:22 18,2 C 15,6 C 68 % 1014,7 hPa 0,0 l/m 2 min 0 min 93 W/m 4,2 km/h (1 Bft)
10.10.2014 17:24 18,1 C 15,0 C 68 % 1014,6 hPa 0,0 l/m 2 min 0 min 90 W/m 8,4 km/h (2 Bft)
10.10.2014 17:26 18,1 C 15,0 C 68 % 1014,5 hPa 0,0 l/m 2 min 0 min 86 W/m 8,4 km/h (2 Bft)
10.10.2014 17:28 18,1 C 15,0 C 68 % 1014,6 hPa 0,0 l/m 0 min 0 min 78 W/m 10,5 km/h (2 Bft)
10.10.2014 17:30 18,0 C 15,0 C 68 % 1014,7 hPa 0,0 l/m 0 min 0 min 70 W/m 6,3 km/h (2 Bft)
10.10.2014 17:32 18,0 C 15,0 C 69 % 1014,7 hPa 0,0 l/m 0 min 0 min 65 W/m 6,3 km/h (2 Bft)
10.10.2014 17:34 17,9 C 15,0 C 69 % 1014,7 hPa 0,0 l/m 0 min 0 min 63 W/m 6,3 km/h (2 Bft)
10.10.2014 17:36 17,9 C 15,0 C 69 % 1014,7 hPa 0,0 l/m 0 min 0 min 66 W/m 6,3 km/h (2 Bft)
10.10.2014 17:38 17,9 C 15,0 C 69 % 1014,7 hPa 0,0 l/m 0 min 0 min 70 W/m 6,3 km/h (2 Bft)
10.10.2014 17:40 17,8 C 15,0 C 69 % 1014,5 hPa 0,0 l/m 0 min 0 min 68 W/m 4,2 km/h (1 Bft)
10.10.2014 17:42 17,8 C 15,0 C 69 % 1014,5 hPa 0,0 l/m 0 min 0 min 62 W/m 4,2 km/h (1 Bft)
10.10.2014 17:44 17,8 C 14,4 C 69 % 1014,5 hPa 0,0 l/m 0 min 0 min 62 W/m 4,2 km/h (1 Bft)
10.10.2014 17:46 17,7 C 14,4 C 69 % 1014,5 hPa 0,0 l/m 0 min 0 min 61 W/m 4,2 km/h (1 Bft)
10.10.2014 17:48 17,7 C 14,4 C 70 % 1014,6 hPa 0,0 l/m 0 min 0 min 56 W/m 6,3 km/h (2 Bft)
10.10.2014 17:50 17,7 C 14,4 C 70 % 1014,6 hPa 0,0 l/m 0 min 0 min 53 W/m 4,2 km/h (1 Bft)
10.10.2014 17:52 17,6 C 14,4 C 70 % 1014,6 hPa 0,0 l/m 0 min 0 min 48 W/m 4,2 km/h (1 Bft)
10.10.2014 17:54 17,6 C 13,9 C 70 % 1014,6 hPa 0,0 l/m 0 min 0 min 45 W/m 2,1 km/h (1 Bft)
10.10.2014 17:56 17,6 C 13,9 C 70 % 1014,6 hPa 0,0 l/m 0 min 0 min 45 W/m 2,1 km/h (1 Bft)
10.10.2014 17:58 17,6 C 13,9 C 70 % 1014,5 hPa 0,0 l/m 0 min 0 min 46 W/m 2,1 km/h (1 Bft)
10.10.2014 18:00 17,5 C 13,9 C 70 % 1014,5 hPa 0,0 l/m 0 min 0 min 46 W/m 4,2 km/h (1 Bft)
10.10.2014 18:02 17,5 C 13,9 C 70 % 1014,5 hPa 0,0 l/m 0 min 0 min 44 W/m 6,3 km/h (2 Bft)
10.10.2014 18:05 17,4 C 13,9 C 70 % 1014,4 hPa 0,0 l/m 0 min 0 min 40 W/m 4,2 km/h (1 Bft)
10.10.2014 18:08 17,4 C 13,9 C 71 % 1014,4 hPa 0,0 l/m 0 min 0 min 42 W/m 4,2 km/h (1 Bft)
10.10.2014 18:10 17,4 C 13,9 C 72 % 1014,5 hPa 0,0 l/m 2 min 0 min 42 W/m 2,1 km/h (1 Bft)
10.10.2014 18:12 17,3 C 13,9 C 73 % 1014,5 hPa 0,0 l/m 2 min 0 min 39 W/m 4,2 km/h (1 Bft)
10.10.2014 18:14 17,3 C 13,9 C 73 % 1014,4 hPa 0,0 l/m 2 min 0 min 37 W/m 2,1 km/h (1 Bft)
10.10.2014 18:16 17,3 C 13,9 C 73 % 1014,5 hPa 0,0 l/m 2 min 0 min 35 W/m 4,2 km/h (1 Bft)
10.10.2014 18:18 17,2 C 13,3 C 73 % 1014,4 hPa 0,0 l/m 2 min 0 min 34 W/m 2,1 km/h (1 Bft)
10.10.2014 18:20 17,2 C 13,3 C 73 % 1014,5 hPa 0,0 l/m 2 min 0 min 33 W/m 2,1 km/h (1 Bft)
10.10.2014 18:22 17,2 C 13,3 C 73 % 1014,5 hPa 0,0 l/m 2 min 0 min 33 W/m 2,1 km/h (1 Bft)
10.10.2014 18:24 17,1 C 13,3 C 74 % 1014,6 hPa 0,0 l/m 2 min 0 min 33 W/m 2,1 km/h (1 Bft)
10.10.2014 18:26 17,1 C 13,3 C 74 % 1014,6 hPa 0,0 l/m 2 min 0 min 30 W/m 2,1 km/h (1 Bft)
10.10.2014 18:28 17,1 C 13,3 C 74 % 1014,5 hPa 0,0 l/m 2 min 0 min 23 W/m 4,2 km/h (1 Bft)
10.10.2014 18:30 17,0 C 13,3 C 75 % 1014,6 hPa 0,0 l/m 0 min 0 min 17 W/m 8,4 km/h (2 Bft)
10.10.2014 18:32 16,9 C 13,3 C 76 % 1014,7 hPa 0,0 l/m 0 min 0 min 13 W/m 6,3 km/h (2 Bft)
10.10.2014 18:34 16,9 C 13,3 C 76 % 1014,7 hPa 0,0 l/m 0 min 0 min 11 W/m 4,2 km/h (1 Bft)
10.10.2014 18:36 16,8 C 13,3 C 76 % 1014,7 hPa 0,0 l/m 0 min 0 min 11 W/m 6,3 km/h (2 Bft)
10.10.2014 18:38 16,7 C 12,8 C 76 % 1014,7 hPa 0,0 l/m 0 min 0 min 9 W/m 6,3 km/h (2 Bft)
10.10.2014 18:40 16,7 C 12,8 C 76 % 1014,6 hPa 0,0 l/m 0 min 0 min 9 W/m 4,2 km/h (1 Bft)
10.10.2014 18:42 16,6 C 12,8 C 76 % 1014,6 hPa 0,0 l/m 0 min 0 min 8 W/m 4,2 km/h (1 Bft)
10.10.2014 18:44 16,6 C 12,8 C 76 % 1014,6 hPa 0,0 l/m 0 min 0 min 6 W/m 4,2 km/h (1 Bft)
10.10.2014 18:46 16,5 C 12,8 C 76 % 1014,6 hPa 0,0 l/m 0 min 0 min 5 W/m 4,2 km/h (1 Bft)
10.10.2014 18:48 16,4 C 12,8 C 76 % 1014,6 hPa 0,0 l/m 0 min 0 min 7 W/m 4,2 km/h (1 Bft)
10.10.2014 18:50 16,3 C 12,8 C 76 % 1014,6 hPa 0,0 l/m 0 min 0 min 7 W/m 2,1 km/h (1 Bft)
10.10.2014 18:52 16,3 C 12,8 C 77 % 1014,6 hPa 0,0 l/m 0 min 0 min 7 W/m 2,1 km/h (1 Bft)
10.10.2014 18:54 16,2 C 12,8 C 77 % 1014,6 hPa 0,0 l/m 0 min 0 min 7 W/m 4,2 km/h (1 Bft)
10.10.2014 18:56 16,2 C 12,2 C 77 % 1014,6 hPa 0,0 l/m 0 min 0 min 7 W/m 6,3 km/h (2 Bft)
10.10.2014 18:58 16,1 C 12,2 C 77 % 1014,6 hPa 0,0 l/m 0 min 0 min 6 W/m 4,2 km/h (1 Bft)
10.10.2014 19:00 16,1 C 12,2 C 77 % 1014,7 hPa 0,0 l/m 0 min 0 min 3 W/m 4,2 km/h (1 Bft)
10.10.2014 19:02 16,0 C 12,2 C 77 % 1014,7 hPa 0,0 l/m 0 min 0 min 0 W/m 4,2 km/h (1 Bft)
10.10.2014 19:04 15,9 C 12,2 C 77 % 1014,6 hPa 0,0 l/m 0 min 0 min 0 W/m 4,2 km/h (1 Bft)
10.10.2014 19:06 15,9 C 12,2 C 78 % 1014,6 hPa 0,0 l/m 0 min 0 min 0 W/m 4,2 km/h (1 Bft)
10.10.2014 19:08 15,8 C 12,2 C 78 % 1014,6 hPa 0,0 l/m 0 min 0 min 0 W/m 2,1 km/h (1 Bft)
10.10.2014 19:10 15,7 C 12,2 C 78 % 1014,6 hPa 0,0 l/m 0 min 0 min 0 W/m 2,1 km/h (1 Bft)
10.10.2014 19:12 15,7 C 12,2 C 78 % 1014,6 hPa 0,0 l/m 0 min 0 min 0 W/m 2,1 km/h (1 Bft)
10.10.2014 19:14 15,6 C 12,2 C 78 % 1014,5 hPa 0,0 l/m 0 min 0 min 0 W/m 2,1 km/h (1 Bft)
10.10.2014 19:16 15,6 C 12,2 C 78 % 1014,5 hPa 0,0 l/m 0 min 0 min 0 W/m 2,1 km/h (1 Bft)
10.10.2014 19:19 15,5 C 12,2 C 79 % 1014,6 hPa 0,0 l/m 0 min 0 min 0 W/m 2,1 km/h (1 Bft)
10.10.2014 19:20 15,5 C 12,2 C 79 % 1014,6 hPa 0,0 l/m 0 min 0 min 0 W/m 2,1 km/h (1 Bft)
10.10.2014 19:22 15,4 C 12,2 C 79 % 1014,5 hPa 0,0 l/m 0 min 0 min 0 W/m 2,1 km/h (1 Bft)
10.10.2014 19:24 15,4 C 12,2 C 79 % 1014,5 hPa 0,0 l/m 0 min 0 min 0 W/m 2,1 km/h (1 Bft)
10.10.2014 19:26 15,3 C 12,2 C 79 % 1014,5 hPa 0,0 l/m 0 min 0 min 0 W/m 2,1 km/h (1 Bft)
10.10.2014 19:28 15,2 C 12,2 C 80 % 1014,6 hPa 0,0 l/m 0 min 0 min 0 W/m 0,0 km/h (0 Bft)
10.10.2014 19:30 15,2 C 11,7 C 80 % 1014,6 hPa 0,0 l/m 0 min 0 min 0 W/m 2,1 km/h (1 Bft)
10.10.2014 19:32 15,2 C 11,7 C 81 % 1014,6 hPa 0,0 l/m 0 min 0 min 0 W/m 2,1 km/h (1 Bft)
10.10.2014 19:34 15,1 C 11,7 C 81 % 1014,6 hPa 0,0 l/m 0 min 0 min 0 W/m 0,0 km/h (0 Bft)
10.10.2014 19:36 15,1 C 11,7 C 81 % 1014,5 hPa 0,0 l/m 0 min 0 min 0 W/m 0,0 km/h (0 Bft)
10.10.2014 19:38 14,9 C 11,7 C 81 % 1014,5 hPa 0,0 l/m 0 min 0 min 0 W/m 2,1 km/h (1 Bft)
10.10.2014 19:40 14,9 C 11,7 C 82 % 1014,5 hPa 0,0 l/m 0 min 0 min 0 W/m 2,1 km/h (1 Bft)
10.10.2014 19:42 14,9 C 11,7 C 82 % 1014,5 hPa 0,0 l/m 0 min 0 min 0 W/m 2,1 km/h (1 Bft)
10.10.2014 19:44 14,8 C 11,7 C 82 % 1014,5 hPa 0,0 l/m 0 min 0 min 0 W/m 0,0 km/h (0 Bft)
10.10.2014 19:46 14,8 C 11,7 C 82 % 1014,6 hPa 0,0 l/m 0 min 0 min 0 W/m 2,1 km/h (1 Bft)
10.10.2014 19:48 14,7 C 11,7 C 83 % 1014,6 hPa 0,0 l/m 0 min 0 min 0 W/m 2,1 km/h (1 Bft)
10.10.2014 19:50 14,7 C 11,7 C 83 % 1014,6 hPa 0,0 l/m 0 min 0 min 0 W/m 2,1 km/h (1 Bft)
10.10.2014 19:52 14,6 C 11,7 C 83 % 1014,6 hPa 0,0 l/m 0 min 0 min 0 W/m 2,1 km/h (1 Bft)
10.10.2014 19:54 14,6 C 11,7 C 83 % 1014,6 hPa 0,0 l/m 0 min 0 min 0 W/m 2,1 km/h (1 Bft)
10.10.2014 19:56 14,5 C 11,7 C 83 % 1014,5 hPa 0,0 l/m 0 min 0 min 0 W/m 0,0 km/h (0 Bft)
10.10.2014 19:58 14,4 C 11,7 C 84 % 1014,5 hPa 0,0 l/m 0 min 0 min 0 W/m 2,1 km/h (1 Bft)
10.10.2014 20:00 14,4 C 11,7 C 84 % 1014,6 hPa 0,0 l/m 0 min 0 min 0 W/m 2,1 km/h (1 Bft)
10.10.2014 20:02 14,4 C 11,7 C 84 % 1014,7 hPa 0,0 l/m 0 min 0 min 0 W/m 2,1 km/h (1 Bft)
10.10.2014 20:04 14,3 C 11,7 C 84 % 1014,7 hPa 0,0 l/m 0 min 0 min 0 W/m 2,1 km/h (1 Bft)
10.10.2014 20:06 14,3 C 11,7 C 84 % 1014,7 hPa 0,0 l/m 0 min 0 min 0 W/m 4,2 km/h (1 Bft)
10.10.2014 20:08 14,2 C 11,7 C 85 % 1014,6 hPa 0,0 l/m 0 min 0 min 0 W/m 2,1 km/h (1 Bft)
10.10.2014 20:10 14,2 C 11,7 C 85 % 1014,5 hPa 0,0 l/m 0 min 0 min 0 W/m 2,1 km/h (1 Bft)
10.10.2014 20:12 14,2 C 11,7 C 85 % 1014,5 hPa 0,0 l/m 0 min 0 min 0 W/m 2,1 km/h (1 Bft)
10.10.2014 20:14 14,2 C 11,7 C 85 % 1014,5 hPa 0,0 l/m 0 min 0 min 0 W/m 2,1 km/h (1 Bft)
10.10.2014 20:16 14,2 C 11,7 C 85 % 1014,6 hPa 0,0 l/m 0 min 0 min 0 W/m 2,1 km/h (1 Bft)
10.10.2014 20:18 14,2 C 11,7 C 85 % 1014,6 hPa 0,0 l/m 0 min 0 min 0 W/m 2,1 km/h (1 Bft)
10.10.2014 20:20 14,1 C 11,7 C 85 % 1014,6 hPa 0,0 l/m 0 min 0 min 0 W/m 2,1 km/h (1 Bft)
10.10.2014 20:22 14,1 C 11,7 C 86 % 1014,7 hPa 0,0 l/m 0 min 0 min 0 W/m 2,1 km/h (1 Bft)
10.10.2014 20:23 14,0 C 11,7 C 86 % 1014,7 hPa 0,0 l/m 0 min 0 min 0 W/m 2,1 km/h (1 Bft)
10.10.2014 20:26 13,9 C 11,1 C 85 % 1014,8 hPa 0,0 l/m 0 min 0 min 0 W/m 0,0 km/h (0 Bft)
10.10.2014 20:28 13,9 C 11,1 C 86 % 1014,8 hPa 0,0 l/m 0 min 0 min 0 W/m 0,0 km/h (0 Bft)
10.10.2014 20:30 13,9 C 11,1 C 86 % 1014,8 hPa 0,0 l/m 0 min 0 min 0 W/m 0,0 km/h (0 Bft)
10.10.2014 20:32 13,8 C 11,1 C 86 % 1014,8 hPa 0,0 l/m 0 min 0 min 0 W/m 0,0 km/h (0 Bft)
10.10.2014 20:34 13,8 C 11,1 C 86 % 1014,7 hPa 0,0 l/m 0 min 0 min 0 W/m 0,0 km/h (0 Bft)
10.10.2014 20:36 13,8 C 11,1 C 86 % 1014,7 hPa 0,0 l/m 0 min 0 min 0 W/m 0,0 km/h (0 Bft)
10.10.2014 20:38 13,7 C 11,1 C 86 % 1014,6 hPa 0,0 l/m 0 min 0 min 0 W/m 0,0 km/h (0 Bft)
10.10.2014 20:40 13,7 C 11,1 C 86 % 1014,6 hPa 0,0 l/m 0 min 0 min 0 W/m 0,0 km/h (0 Bft)
10.10.2014 20:42 13,7 C 11,1 C 86 % 1014,7 hPa 0,0 l/m 0 min 0 min 0 W/m 0,0 km/h (0 Bft)
10.10.2014 20:44 13,6 C 11,1 C 86 % 1014,6 hPa 0,0 l/m 0 min 0 min 0 W/m 0,0 km/h (0 Bft)
10.10.2014 20:46 13,6 C 11,1 C 86 % 1014,7 hPa 0,0 l/m 0 min 0 min 0 W/m 0,0 km/h (0 Bft)
10.10.2014 20:48 13,6 C 11,1 C 86 % 1014,7 hPa 0,0 l/m 0 min 0 min 0 W/m 0,0 km/h (0 Bft)
10.10.2014 20:50 13,5 C 11,1 C 86 % 1014,7 hPa 0,0 l/m 0 min 0 min 0 W/m 0,0 km/h (0 Bft)
10.10.2014 20:52 13,5 C 11,1 C 87 % 1014,7 hPa 0,0 l/m 0 min 0 min 0 W/m 0,0 km/h (0 Bft)
10.10.2014 20:54 13,5 C 11,1 C 87 % 1014,8 hPa 0,0 l/m 0 min 0 min 0 W/m 0,0 km/h (0 Bft)
10.10.2014 20:56 13,5 C 11,1 C 87 % 1014,8 hPa 0,0 l/m 0 min 0 min 0 W/m 0,0 km/h (0 Bft)
10.10.2014 20:58 13,5 C 11,1 C 88 % 1014,7 hPa 0,0 l/m 0 min 0 min 0 W/m 2,1 km/h (1 Bft)
10.10.2014 21:00 13,5 C 11,1 C 88 % 1014,7 hPa 0,0 l/m 0 min 0 min 0 W/m 2,1 km/h (1 Bft)
10.10.2014 21:02 13,4 C 11,1 C 88 % 1014,7 hPa 0,0 l/m 0 min 0 min 0 W/m 2,1 km/h (1 Bft)
10.10.2014 21:04 13,4 C 11,1 C 88 % 1014,8 hPa 0,0 l/m 0 min 0 min 0 W/m 2,1 km/h (1 Bft)
10.10.2014 21:06 13,4 C 11,1 C 88 % 1014,8 hPa 0,0 l/m 0 min 0 min 0 W/m 2,1 km/h (1 Bft)
10.10.2014 21:08 13,3 C 11,1 C 88 % 1014,9 hPa 0,0 l/m 0 min 0 min 0 W/m 2,1 km/h (1 Bft)
10.10.2014 21:10 13,3 C 11,1 C 88 % 1014,9 hPa 0,0 l/m 0 min 0 min 0 W/m 2,1 km/h (1 Bft)
10.10.2014 21:12 13,3 C 11,1 C 89 % 1014,8 hPa 0,0 l/m 0 min 0 min 0 W/m 2,1 km/h (1 Bft)
10.10.2014 21:14 13,3 C 11,1 C 89 % 1014,8 hPa 0,0 l/m 0 min 0 min 0 W/m 2,1 km/h (1 Bft)
10.10.2014 21:16 13,2 C 11,1 C 89 % 1014,8 hPa 0,0 l/m 0 min 0 min 0 W/m 2,1 km/h (1 Bft)
10.10.2014 21:18 13,2 C 11,1 C 89 % 1014,8 hPa 0,0 l/m 0 min 0 min 0 W/m 2,1 km/h (1 Bft)
10.10.2014 21:20 13,2 C 11,1 C 89 % 1014,8 hPa 0,0 l/m 0 min 0 min 0 W/m 2,1 km/h (1 Bft)
10.10.2014 21:22 13,1 C 11,1 C 88 % 1014,8 hPa 0,0 l/m 0 min 0 min 0 W/m 2,1 km/h (1 Bft)
10.10.2014 21:24 13,1 C 11,1 C 88 % 1014,8 hPa 0,0 l/m 0 min 0 min 0 W/m 0,0 km/h (0 Bft)
10.10.2014 21:26 13,1 C 11,1 C 89 % 1014,8 hPa 0,0 l/m 0 min 0 min 0 W/m 2,1 km/h (1 Bft)
10.10.2014 21:28 13,1 C 11,1 C 89 % 1014,8 hPa 0,0 l/m 0 min 0 min 0 W/m 2,1 km/h (1 Bft)
10.10.2014 21:30 13,1 C 11,1 C 89 % 1014,9 hPa 0,0 l/m 0 min 0 min 0 W/m 2,1 km/h (1 Bft)
10.10.2014 21:32 13,1 C 11,1 C 89 % 1014,9 hPa 0,0 l/m 0 min 0 min 0 W/m 2,1 km/h (1 Bft)
10.10.2014 21:34 13,0 C 11,1 C 89 % 1014,8 hPa 0,0 l/m 0 min 0 min 0 W/m 2,1 km/h (1 Bft)
10.10.2014 21:36 13,0 C 11,1 C 89 % 1014,8 hPa 0,0 l/m 0 min 0 min 0 W/m 0,0 km/h (0 Bft)
10.10.2014 21:38 12,9 C 11,1 C 90 % 1014,8 hPa 0,0 l/m 0 min 0 min 0 W/m 0,0 km/h (0 Bft)
10.10.2014 21:40 12,9 C 11,1 C 90 % 1014,7 hPa 0,0 l/m 0 min 0 min 0 W/m 2,1 km/h (1 Bft)
10.10.2014 21:42 12,9 C 11,1 C 90 % 1014,7 hPa 0,0 l/m 0 min 0 min 0 W/m 2,1 km/h (1 Bft)
10.10.2014 21:44 12,9 C 11,1 C 90 % 1014,7 hPa 0,0 l/m 0 min 0 min 0 W/m 0,0 km/h (0 Bft)
10.10.2014 21:46 12,9 C 11,1 C 90 % 1014,7 hPa 0,0 l/m 0 min 0 min 0 W/m 0,0 km/h (0 Bft)
10.10.2014 21:48 12,9 C 11,1 C 90 % 1014,7 hPa 0,0 l/m 0 min 0 min 0 W/m 0,0 km/h (0 Bft)
10.10.2014 21:50 12,8 C 11,1 C 90 % 1014,7 hPa 0,0 l/m 0 min 0 min 0 W/m 0,0 km/h (0 Bft)
10.10.2014 21:52 12,8 C 11,1 C 90 % 1014,7 hPa 0,0 l/m 0 min 0 min 0 W/m 0,0 km/h (0 Bft)
10.10.2014 21:54 12,8 C 11,1 C 90 % 1014,7 hPa 0,0 l/m 0 min 0 min 0 W/m 0,0 km/h (0 Bft)
10.10.2014 21:56 12,8 C 11,1 C 90 % 1014,7 hPa 0,0 l/m 0 min 0 min 0 W/m 0,0 km/h (0 Bft)
10.10.2014 21:58 12,7 C 11,1 C 90 % 1014,7 hPa 0,0 l/m 0 min 0 min 0 W/m 0,0 km/h (0 Bft)
10.10.2014 22:00 12,7 C 11,1 C 90 % 1014,7 hPa 0,0 l/m 0 min 0 min 0 W/m 0,0 km/h (0 Bft)
10.10.2014 22:02 12,7 C 11,1 C 90 % 1014,8 hPa 0,0 l/m 0 min 0 min 0 W/m 0,0 km/h (0 Bft)
10.10.2014 22:04 12,7 C 11,1 C 90 % 1014,7 hPa 0,0 l/m 0 min 0 min 0 W/m 2,1 km/h (1 Bft)
10.10.2014 22:06 12,7 C 11,1 C 90 % 1014,7 hPa 0,0 l/m 0 min 0 min 0 W/m 2,1 km/h (1 Bft)
10.10.2014 22:08 12,7 C 11,1 C 90 % 1014,7 hPa 0,0 l/m 0 min 0 min 0 W/m 0,0 km/h (0 Bft)
10.10.2014 22:10 12,7 C 11,1 C 90 % 1014,7 hPa 0,0 l/m 0 min 0 min 0 W/m 0,0 km/h (0 Bft)
10.10.2014 22:12 12,7 C 11,1 C 90 % 1014,7 hPa 0,0 l/m 0 min 0 min 0 W/m 0,0 km/h (0 Bft)
10.10.2014 22:14 12,7 C 11,1 C 90 % 1014,6 hPa 0,0 l/m 0 min 0 min 0 W/m 0,0 km/h (0 Bft)
10.10.2014 22:16 12,6 C 11,1 C 90 % 1014,6 hPa 0,0 l/m 0 min 0 min 0 W/m 0,0 km/h (0 Bft)
10.10.2014 22:18 12,6 C 11,1 C 90 % 1014,5 hPa 0,0 l/m 0 min 0 min 0 W/m 2,1 km/h (1 Bft)
10.10.2014 22:20 12,6 C 11,1 C 90 % 1014,6 hPa 0,0 l/m 0 min 0 min 0 W/m 0,0 km/h (0 Bft)
10.10.2014 22:22 12,6 C 11,1 C 91 % 1014,6 hPa 0,0 l/m 0 min 0 min 0 W/m 2,1 km/h (1 Bft)
10.10.2014 22:24 12,7 C 11,1 C 91 % 1014,6 hPa 0,0 l/m 0 min 0 min 0 W/m 2,1 km/h (1 Bft)
10.10.2014 22:26 12,6 C 11,1 C 91 % 1014,6 hPa 0,0 l/m 0 min 0 min 0 W/m 2,1 km/h (1 Bft)
10.10.2014 22:28 12,7 C 11,1 C 91 % 1014,6 hPa 0,0 l/m 0 min 0 min 0 W/m 2,1 km/h (1 Bft)
10.10.2014 22:30 12,7 C 11,1 C 91 % 1014,6 hPa 0,0 l/m 0 min 0 min 0 W/m 2,1 km/h (1 Bft)
10.10.2014 22:32 12,7 C 11,1 C 91 % 1014,6 hPa 0,0 l/m 0 min 0 min 0 W/m 2,1 km/h (1 Bft)
10.10.2014 22:34 12,6 C 11,1 C 91 % 1014,6 hPa 0,0 l/m 0 min 0 min 0 W/m 4,2 km/h (1 Bft)
10.10.2014 22:36 12,6 C 11,1 C 92 % 1014,6 hPa 0,0 l/m 0 min 0 min 0 W/m 4,2 km/h (1 Bft)
10.10.2014 22:38 12,6 C 11,1 C 92 % 1014,6 hPa 0,0 l/m 0 min 0 min 0 W/m 4,2 km/h (1 Bft)
10.10.2014 22:40 12,6 C 11,1 C 92 % 1014,7 hPa 0,0 l/m 0 min 0 min 0 W/m 2,1 km/h (1 Bft)
10.10.2014 22:42 12,6 C 11,1 C 92 % 1014,7 hPa 0,0 l/m 0 min 0 min 0 W/m 2,1 km/h (1 Bft)
10.10.2014 22:44 12,6 C 11,1 C 92 % 1014,7 hPa 0,0 l/m 0 min 0 min 0 W/m 2,1 km/h (1 Bft)
10.10.2014 22:46 12,6 C 11,1 C 92 % 1014,6 hPa 0,0 l/m 0 min 0 min 0 W/m 0,0 km/h (0 Bft)
10.10.2014 22:48 12,6 C 11,1 C 92 % 1014,5 hPa 0,0 l/m 0 min 0 min 0 W/m 2,1 km/h (1 Bft)
10.10.2014 22:50 12,6 C 11,1 C 92 % 1014,5 hPa 0,0 l/m 0 min 0 min 0 W/m 2,1 km/h (1 Bft)
10.10.2014 22:52 12,6 C 11,1 C 92 % 1014,6 hPa 0,0 l/m 0 min 0 min 0 W/m 0,0 km/h (0 Bft)
10.10.2014 22:54 12,6 C 11,1 C 92 % 1014,6 hPa 0,0 l/m 0 min 0 min 0 W/m 0,0 km/h (0 Bft)
10.10.2014 22:56 12,5 C 11,1 C 92 % 1014,6 hPa 0,0 l/m 0 min 0 min 0 W/m 2,1 km/h (1 Bft)
10.10.2014 22:58 12,5 C 11,1 C 92 % 1014,6 hPa 0,0 l/m 0 min 0 min 0 W/m 2,1 km/h (1 Bft)
10.10.2014 23:00 12,5 C 11,1 C 92 % 1014,5 hPa 0,0 l/m 0 min 0 min 0 W/m 2,1 km/h (1 Bft)
10.10.2014 23:02 12,5 C 11,1 C 92 % 1014,6 hPa 0,0 l/m 0 min 0 min 0 W/m 2,1 km/h (1 Bft)
10.10.2014 23:04 12,4 C 11,1 C 92 % 1014,6 hPa 0,0 l/m 0 min 0 min 0 W/m 0,0 km/h (0 Bft)
10.10.2014 23:06 12,4 C 11,1 C 92 % 1014,6 hPa 0,0 l/m 0 min 0 min 0 W/m 0,0 km/h (0 Bft)
10.10.2014 23:08 12,4 C 11,1 C 92 % 1014,6 hPa 0,0 l/m 0 min 0 min 0 W/m 0,0 km/h (0 Bft)
10.10.2014 23:10 12,4 C 11,1 C 92 % 1014,7 hPa 0,0 l/m 0 min 0 min 0 W/m 2,1 km/h (1 Bft)
10.10.2014 23:12 12,4 C 11,1 C 92 % 1014,7 hPa 0,0 l/m 0 min 0 min 0 W/m 2,1 km/h (1 Bft)
10.10.2014 23:14 12,4 C 10,6 C 92 % 1014,7 hPa 0,0 l/m 0 min 0 min 0 W/m 0,0 km/h (0 Bft)
10.10.2014 23:16 12,4 C 10,6 C 92 % 1014,7 hPa 0,0 l/m 0 min 0 min 0 W/m 2,1 km/h (1 Bft)
10.10.2014 23:18 12,4 C 10,6 C 92 % 1014,7 hPa 0,0 l/m 0 min 0 min 0 W/m 2,1 km/h (1 Bft)
10.10.2014 23:20 12,4 C 10,6 C 92 % 1014,7 hPa 0,0 l/m 0 min 0 min 0 W/m 2,1 km/h (1 Bft)
10.10.2014 23:22 12,3 C 10,6 C 92 % 1014,7 hPa 0,0 l/m 0 min 0 min 0 W/m 2,1 km/h (1 Bft)
10.10.2014 23:24 12,3 C 10,6 C 92 % 1014,7 hPa 0,0 l/m 0 min 0 min 0 W/m 2,1 km/h (1 Bft)
10.10.2014 23:26 12,3 C 10,6 C 92 % 1014,7 hPa 0,0 l/m 0 min 0 min 0 W/m 4,2 km/h (1 Bft)
10.10.2014 23:28 12,3 C 10,6 C 92 % 1014,6 hPa 0,0 l/m 0 min 0 min 0 W/m 2,1 km/h (1 Bft)
10.10.2014 23:30 12,3 C 10,6 C 92 % 1014,6 hPa 0,0 l/m 0 min 0 min 0 W/m 2,1 km/h (1 Bft)
10.10.2014 23:32 12,3 C 10,6 C 92 % 1014,6 hPa 0,0 l/m 0 min 0 min 0 W/m 2,1 km/h (1 Bft)
10.10.2014 23:34 12,3 C 10,6 C 92 % 1014,6 hPa 0,0 l/m 0 min 0 min 0 W/m 2,1 km/h (1 Bft)
10.10.2014 23:36 12,3 C 10,6 C 93 % 1014,6 hPa 0,0 l/m 0 min 0 min 0 W/m 2,1 km/h (1 Bft)
10.10.2014 23:38 12,3 C 10,6 C 93 % 1014,6 hPa 0,0 l/m 0 min 0 min 0 W/m 2,1 km/h (1 Bft)
10.10.2014 23:40 12,3 C 10,6 C 93 % 1014,5 hPa 0,0 l/m 0 min 0 min 0 W/m 0,0 km/h (0 Bft)
10.10.2014 23:42 12,3 C 10,6 C 93 % 1014,6 hPa 0,0 l/m 0 min 0 min 0 W/m 0,0 km/h (0 Bft)
10.10.2014 23:44 12,2 C 10,6 C 93 % 1014,6 hPa 0,0 l/m 0 min 0 min 0 W/m 0,0 km/h (0 Bft)
10.10.2014 23:46 12,2 C 10,6 C 93 % 1014,5 hPa 0,0 l/m 0 min 0 min 0 W/m 0,0 km/h (0 Bft)
10.10.2014 23:48 12,2 C 10,6 C 93 % 1014,5 hPa 0,0 l/m 0 min 0 min 0 W/m 2,1 km/h (1 Bft)
10.10.2014 23:50 12,2 C 10,6 C 93 % 1014,5 hPa 0,0 l/m 0 min 0 min 0 W/m 2,1 km/h (1 Bft)
10.10.2014 23:52 12,2 C 10,6 C 93 % 1014,5 hPa 0,0 l/m 0 min 0 min 0 W/m 2,1 km/h (1 Bft)
10.10.2014 23:54 12,2 C 10,6 C 93 % 1014,5 hPa 0,0 l/m 0 min 0 min 0 W/m 4,2 km/h (1 Bft)
10.10.2014 23:56 12,2 C 10,6 C 93 % 1014,5 hPa 0,0 l/m 0 min 0 min 0 W/m 2,1 km/h (1 Bft)
10.10.2014 23:58 12,2 C 10,6 C 93 % 1014,5 hPa 0,0 l/m 0 min 0 min 0 W/m 2,1 km/h (1 Bft)
_ Min-Zeit 07:52 06:46 15:54 00:40 - - - - 19:28
Minimum _ 12,1 C 10,6 C 62 % 1009,6 hPa - - - - 0,0 km/h (0 Bft)
_ Max-Zeit 13:58 13:44 09:14 15:08 03:14 08:02 02:40 13:44 12:18
Maximum _ 19,7 C 17,2 C 98 % 1015,0 hPa 1,2 l/m 2 min 2 min 669 W/m 33,5 km/h
W-SW (5 Bft)
Durchschnitt _ 14,8 C 12,8 C 85 % 1013,2 hPa #3,4 l/m #9:14 h #1:08 h 272 W/m 10,0 km/h (2 Bft)
© 2014 W. Hausmann